<?xml version="1.0" encoding="UTF-8" standalone="no" ?>
<gpx xmlns="http://www.topografix.com/GPX/1/1" xmlns:xsi="http://www.w3.org/2001/XMLSchema-instance" xsi:schemaLocation="http://www.topografix.com/GPX/1/1 http://www.topografix.com/GPX/1/1/gpx.xsd" version="1.1" creator="VisuGPX - https://www.visugpx.com">
  <metadata>
    <name>Vallée de Eyné</name>
    <desc><![CDATA[un petit aller retour dans la vallée de Eyné]]></desc>
  </metadata>
  <trk>
    <name><![CDATA[2013-08-17-01]]></name>
    <trkseg>
      <trkpt lat="42.46972" lon="2.08172">
        <ele>1610.1</ele>
        <time>2013-08-17T07:40:26Z</time>
      </trkpt>
      <trkpt lat="42.46969" lon="2.08176">
        <ele>1610.3</ele>
        <time>2013-08-17T07:41:36Z</time>
      </trkpt>
      <trkpt lat="42.46968" lon="2.08176">
        <ele>1610.3</ele>
        <time>2013-08-17T07:41:37Z</time>
      </trkpt>
      <trkpt lat="42.46962" lon="2.08182">
        <ele>1610.6</ele>
        <time>2013-08-17T07:41:46Z</time>
      </trkpt>
      <trkpt lat="42.46958" lon="2.08186">
        <ele>1610.2</ele>
        <time>2013-08-17T07:41:51Z</time>
      </trkpt>
      <trkpt lat="42.46955" lon="2.08189">
        <ele>1610.5</ele>
        <time>2013-08-17T07:41:57Z</time>
      </trkpt>
      <trkpt lat="42.46951" lon="2.08193">
        <ele>1611</ele>
        <time>2013-08-17T07:42:03Z</time>
      </trkpt>
      <trkpt lat="42.46947" lon="2.08191">
        <ele>1611.8</ele>
        <time>2013-08-17T07:42:21Z</time>
      </trkpt>
      <trkpt lat="42.46944" lon="2.08193">
        <ele>1611.6</ele>
        <time>2013-08-17T07:42:41Z</time>
      </trkpt>
      <trkpt lat="42.46943" lon="2.08193">
        <ele>1611.6</ele>
        <time>2013-08-17T07:42:42Z</time>
      </trkpt>
      <trkpt lat="42.46937" lon="2.08196">
        <ele>1611.3</ele>
        <time>2013-08-17T07:42:50Z</time>
      </trkpt>
      <trkpt lat="42.46936" lon="2.08201">
        <ele>1611.7</ele>
        <time>2013-08-17T07:42:54Z</time>
      </trkpt>
      <trkpt lat="42.46936" lon="2.08206">
        <ele>1613.1</ele>
        <time>2013-08-17T07:43:00Z</time>
      </trkpt>
      <trkpt lat="42.46937" lon="2.08212">
        <ele>1613</ele>
        <time>2013-08-17T07:43:05Z</time>
      </trkpt>
      <trkpt lat="42.46936" lon="2.08217">
        <ele>1614</ele>
        <time>2013-08-17T07:43:11Z</time>
      </trkpt>
      <trkpt lat="42.46932" lon="2.08217">
        <ele>1614.1</ele>
        <time>2013-08-17T07:43:16Z</time>
      </trkpt>
      <trkpt lat="42.46928" lon="2.0822">
        <ele>1615.8</ele>
        <time>2013-08-17T07:43:46Z</time>
      </trkpt>
      <trkpt lat="42.46928" lon="2.08221">
        <ele>1615.6</ele>
        <time>2013-08-17T07:43:47Z</time>
      </trkpt>
      <trkpt lat="42.46937" lon="2.08221">
        <ele>1615.4</ele>
        <time>2013-08-17T07:44:11Z</time>
      </trkpt>
      <trkpt lat="42.46941" lon="2.08222">
        <ele>1614.9</ele>
        <time>2013-08-17T07:44:16Z</time>
      </trkpt>
      <trkpt lat="42.46944" lon="2.08225">
        <ele>1613.2</ele>
        <time>2013-08-17T07:44:21Z</time>
      </trkpt>
      <trkpt lat="42.46946" lon="2.0823">
        <ele>1613.4</ele>
        <time>2013-08-17T07:44:25Z</time>
      </trkpt>
      <trkpt lat="42.46948" lon="2.08236">
        <ele>1613.3</ele>
        <time>2013-08-17T07:44:33Z</time>
      </trkpt>
      <trkpt lat="42.46945" lon="2.08239">
        <ele>1612</ele>
        <time>2013-08-17T07:44:38Z</time>
      </trkpt>
      <trkpt lat="42.46942" lon="2.08242">
        <ele>1611.6</ele>
        <time>2013-08-17T07:44:42Z</time>
      </trkpt>
      <trkpt lat="42.46939" lon="2.08246">
        <ele>1611.7</ele>
        <time>2013-08-17T07:44:46Z</time>
      </trkpt>
      <trkpt lat="42.46935" lon="2.08249">
        <ele>1611.2</ele>
        <time>2013-08-17T07:44:50Z</time>
      </trkpt>
      <trkpt lat="42.46935" lon="2.08249">
        <ele>1610.9</ele>
        <time>2013-08-17T07:44:51Z</time>
      </trkpt>
      <trkpt lat="42.4693" lon="2.08255">
        <ele>1610</ele>
        <time>2013-08-17T07:45:21Z</time>
      </trkpt>
      <trkpt lat="42.46927" lon="2.08258">
        <ele>1610.4</ele>
        <time>2013-08-17T07:45:23Z</time>
      </trkpt>
      <trkpt lat="42.46925" lon="2.08261">
        <ele>1610.7</ele>
        <time>2013-08-17T07:45:25Z</time>
      </trkpt>
      <trkpt lat="42.46922" lon="2.08265">
        <ele>1611.3</ele>
        <time>2013-08-17T07:45:28Z</time>
      </trkpt>
      <trkpt lat="42.4692" lon="2.08268">
        <ele>1612.2</ele>
        <time>2013-08-17T07:45:31Z</time>
      </trkpt>
      <trkpt lat="42.46917" lon="2.08271">
        <ele>1611.6</ele>
        <time>2013-08-17T07:45:34Z</time>
      </trkpt>
      <trkpt lat="42.46914" lon="2.08274">
        <ele>1610.6</ele>
        <time>2013-08-17T07:45:38Z</time>
      </trkpt>
      <trkpt lat="42.46911" lon="2.08278">
        <ele>1610.7</ele>
        <time>2013-08-17T07:45:42Z</time>
      </trkpt>
      <trkpt lat="42.46908" lon="2.08281">
        <ele>1611.4</ele>
        <time>2013-08-17T07:45:45Z</time>
      </trkpt>
      <trkpt lat="42.46906" lon="2.08286">
        <ele>1612.1</ele>
        <time>2013-08-17T07:45:49Z</time>
      </trkpt>
      <trkpt lat="42.46904" lon="2.08289">
        <ele>1612.5</ele>
        <time>2013-08-17T07:45:52Z</time>
      </trkpt>
      <trkpt lat="42.46903" lon="2.08291">
        <ele>1612.6</ele>
        <time>2013-08-17T07:45:53Z</time>
      </trkpt>
      <trkpt lat="42.469" lon="2.08299">
        <ele>1611.3</ele>
        <time>2013-08-17T07:45:59Z</time>
      </trkpt>
      <trkpt lat="42.46901" lon="2.08305">
        <ele>1611.5</ele>
        <time>2013-08-17T07:46:04Z</time>
      </trkpt>
      <trkpt lat="42.46901" lon="2.0831">
        <ele>1611.8</ele>
        <time>2013-08-17T07:46:08Z</time>
      </trkpt>
      <trkpt lat="42.46903" lon="2.08316">
        <ele>1611.7</ele>
        <time>2013-08-17T07:46:13Z</time>
      </trkpt>
      <trkpt lat="42.46904" lon="2.08321">
        <ele>1612.2</ele>
        <time>2013-08-17T07:46:18Z</time>
      </trkpt>
      <trkpt lat="42.46907" lon="2.08324">
        <ele>1612</ele>
        <time>2013-08-17T07:46:22Z</time>
      </trkpt>
      <trkpt lat="42.46909" lon="2.08329">
        <ele>1611.7</ele>
        <time>2013-08-17T07:46:26Z</time>
      </trkpt>
      <trkpt lat="42.46911" lon="2.08335">
        <ele>1611.9</ele>
        <time>2013-08-17T07:46:29Z</time>
      </trkpt>
      <trkpt lat="42.46912" lon="2.08339">
        <ele>1611.8</ele>
        <time>2013-08-17T07:46:32Z</time>
      </trkpt>
      <trkpt lat="42.46912" lon="2.08344">
        <ele>1612.3</ele>
        <time>2013-08-17T07:46:35Z</time>
      </trkpt>
      <trkpt lat="42.46911" lon="2.08349">
        <ele>1612.7</ele>
        <time>2013-08-17T07:46:38Z</time>
      </trkpt>
      <trkpt lat="42.46909" lon="2.08354">
        <ele>1612.7</ele>
        <time>2013-08-17T07:46:42Z</time>
      </trkpt>
      <trkpt lat="42.46907" lon="2.08359">
        <ele>1613.6</ele>
        <time>2013-08-17T07:46:49Z</time>
      </trkpt>
      <trkpt lat="42.46904" lon="2.08362">
        <ele>1613.1</ele>
        <time>2013-08-17T07:46:54Z</time>
      </trkpt>
      <trkpt lat="42.46903" lon="2.08363">
        <ele>1613.5</ele>
        <time>2013-08-17T07:46:55Z</time>
      </trkpt>
      <trkpt lat="42.46897" lon="2.08369">
        <ele>1614.9</ele>
        <time>2013-08-17T07:47:04Z</time>
      </trkpt>
      <trkpt lat="42.46894" lon="2.08372">
        <ele>1615.4</ele>
        <time>2013-08-17T07:47:08Z</time>
      </trkpt>
      <trkpt lat="42.46891" lon="2.08374">
        <ele>1616.1</ele>
        <time>2013-08-17T07:47:13Z</time>
      </trkpt>
      <trkpt lat="42.46887" lon="2.08376">
        <ele>1615.6</ele>
        <time>2013-08-17T07:47:18Z</time>
      </trkpt>
      <trkpt lat="42.46884" lon="2.08378">
        <ele>1616.7</ele>
        <time>2013-08-17T07:47:22Z</time>
      </trkpt>
      <trkpt lat="42.46881" lon="2.0838">
        <ele>1617.6</ele>
        <time>2013-08-17T07:47:26Z</time>
      </trkpt>
      <trkpt lat="42.46878" lon="2.08383">
        <ele>1617.4</ele>
        <time>2013-08-17T07:47:29Z</time>
      </trkpt>
      <trkpt lat="42.46874" lon="2.08386">
        <ele>1617.3</ele>
        <time>2013-08-17T07:47:33Z</time>
      </trkpt>
      <trkpt lat="42.46871" lon="2.08389">
        <ele>1618.1</ele>
        <time>2013-08-17T07:47:37Z</time>
      </trkpt>
      <trkpt lat="42.46869" lon="2.08393">
        <ele>1618.1</ele>
        <time>2013-08-17T07:47:41Z</time>
      </trkpt>
      <trkpt lat="42.46866" lon="2.08397">
        <ele>1618.7</ele>
        <time>2013-08-17T07:47:45Z</time>
      </trkpt>
      <trkpt lat="42.46863" lon="2.084">
        <ele>1619.8</ele>
        <time>2013-08-17T07:47:48Z</time>
      </trkpt>
      <trkpt lat="42.4686" lon="2.08404">
        <ele>1619.2</ele>
        <time>2013-08-17T07:47:51Z</time>
      </trkpt>
      <trkpt lat="42.46858" lon="2.08407">
        <ele>1619.5</ele>
        <time>2013-08-17T07:47:54Z</time>
      </trkpt>
      <trkpt lat="42.46855" lon="2.08412">
        <ele>1619.8</ele>
        <time>2013-08-17T07:47:58Z</time>
      </trkpt>
      <trkpt lat="42.46854" lon="2.08413">
        <ele>1620.1</ele>
        <time>2013-08-17T07:47:59Z</time>
      </trkpt>
      <trkpt lat="42.4685" lon="2.0842">
        <ele>1621.1</ele>
        <time>2013-08-17T07:48:06Z</time>
      </trkpt>
      <trkpt lat="42.46848" lon="2.08424">
        <ele>1621.2</ele>
        <time>2013-08-17T07:48:10Z</time>
      </trkpt>
      <trkpt lat="42.46845" lon="2.08429">
        <ele>1621.9</ele>
        <time>2013-08-17T07:48:15Z</time>
      </trkpt>
      <trkpt lat="42.46843" lon="2.08434">
        <ele>1622.6</ele>
        <time>2013-08-17T07:48:19Z</time>
      </trkpt>
      <trkpt lat="42.46841" lon="2.08439">
        <ele>1622.3</ele>
        <time>2013-08-17T07:48:23Z</time>
      </trkpt>
      <trkpt lat="42.46839" lon="2.08443">
        <ele>1622.3</ele>
        <time>2013-08-17T07:48:26Z</time>
      </trkpt>
      <trkpt lat="42.46837" lon="2.08446">
        <ele>1623.2</ele>
        <time>2013-08-17T07:48:29Z</time>
      </trkpt>
      <trkpt lat="42.46835" lon="2.0845">
        <ele>1623.2</ele>
        <time>2013-08-17T07:48:32Z</time>
      </trkpt>
      <trkpt lat="42.46832" lon="2.08455">
        <ele>1623.5</ele>
        <time>2013-08-17T07:48:35Z</time>
      </trkpt>
      <trkpt lat="42.4683" lon="2.08459">
        <ele>1624</ele>
        <time>2013-08-17T07:48:38Z</time>
      </trkpt>
      <trkpt lat="42.46828" lon="2.08464">
        <ele>1624.2</ele>
        <time>2013-08-17T07:48:40Z</time>
      </trkpt>
      <trkpt lat="42.46826" lon="2.08469">
        <ele>1624.5</ele>
        <time>2013-08-17T07:48:43Z</time>
      </trkpt>
      <trkpt lat="42.46824" lon="2.08474">
        <ele>1624.9</ele>
        <time>2013-08-17T07:48:46Z</time>
      </trkpt>
      <trkpt lat="42.46822" lon="2.08478">
        <ele>1625.7</ele>
        <time>2013-08-17T07:48:49Z</time>
      </trkpt>
      <trkpt lat="42.46821" lon="2.08482">
        <ele>1626.1</ele>
        <time>2013-08-17T07:48:52Z</time>
      </trkpt>
      <trkpt lat="42.4682" lon="2.08487">
        <ele>1625.9</ele>
        <time>2013-08-17T07:48:55Z</time>
      </trkpt>
      <trkpt lat="42.46819" lon="2.08492">
        <ele>1625.8</ele>
        <time>2013-08-17T07:48:58Z</time>
      </trkpt>
      <trkpt lat="42.46819" lon="2.08493">
        <ele>1625.8</ele>
        <time>2013-08-17T07:48:59Z</time>
      </trkpt>
      <trkpt lat="42.46819" lon="2.08503">
        <ele>1626.1</ele>
        <time>2013-08-17T07:49:07Z</time>
      </trkpt>
      <trkpt lat="42.46819" lon="2.08509">
        <ele>1627.3</ele>
        <time>2013-08-17T07:49:12Z</time>
      </trkpt>
      <trkpt lat="42.46818" lon="2.08514">
        <ele>1627.3</ele>
        <time>2013-08-17T07:49:17Z</time>
      </trkpt>
      <trkpt lat="42.46819" lon="2.08519">
        <ele>1627.9</ele>
        <time>2013-08-17T07:49:22Z</time>
      </trkpt>
      <trkpt lat="42.46818" lon="2.08525">
        <ele>1627.8</ele>
        <time>2013-08-17T07:49:26Z</time>
      </trkpt>
      <trkpt lat="42.46817" lon="2.08529">
        <ele>1627.9</ele>
        <time>2013-08-17T07:49:29Z</time>
      </trkpt>
      <trkpt lat="42.46817" lon="2.08534">
        <ele>1627.2</ele>
        <time>2013-08-17T07:49:32Z</time>
      </trkpt>
      <trkpt lat="42.46816" lon="2.08539">
        <ele>1628.2</ele>
        <time>2013-08-17T07:49:35Z</time>
      </trkpt>
      <trkpt lat="42.46815" lon="2.08544">
        <ele>1628.8</ele>
        <time>2013-08-17T07:49:38Z</time>
      </trkpt>
      <trkpt lat="42.46813" lon="2.08549">
        <ele>1629.5</ele>
        <time>2013-08-17T07:49:42Z</time>
      </trkpt>
      <trkpt lat="42.46812" lon="2.08555">
        <ele>1628.9</ele>
        <time>2013-08-17T07:49:46Z</time>
      </trkpt>
      <trkpt lat="42.4681" lon="2.0856">
        <ele>1629.3</ele>
        <time>2013-08-17T07:49:50Z</time>
      </trkpt>
      <trkpt lat="42.46808" lon="2.08564">
        <ele>1629</ele>
        <time>2013-08-17T07:49:54Z</time>
      </trkpt>
      <trkpt lat="42.46806" lon="2.08569">
        <ele>1629</ele>
        <time>2013-08-17T07:49:59Z</time>
      </trkpt>
      <trkpt lat="42.46806" lon="2.08571">
        <ele>1629.3</ele>
        <time>2013-08-17T07:50:00Z</time>
      </trkpt>
      <trkpt lat="42.46802" lon="2.0858">
        <ele>1629.8</ele>
        <time>2013-08-17T07:50:08Z</time>
      </trkpt>
      <trkpt lat="42.468" lon="2.08585">
        <ele>1630.9</ele>
        <time>2013-08-17T07:50:14Z</time>
      </trkpt>
      <trkpt lat="42.46798" lon="2.08591">
        <ele>1632.7</ele>
        <time>2013-08-17T07:50:21Z</time>
      </trkpt>
      <trkpt lat="42.46796" lon="2.08596">
        <ele>1633.1</ele>
        <time>2013-08-17T07:50:26Z</time>
      </trkpt>
      <trkpt lat="42.46792" lon="2.08598">
        <ele>1633.8</ele>
        <time>2013-08-17T07:50:31Z</time>
      </trkpt>
      <trkpt lat="42.46788" lon="2.086">
        <ele>1634.5</ele>
        <time>2013-08-17T07:50:36Z</time>
      </trkpt>
      <trkpt lat="42.46784" lon="2.086">
        <ele>1636.3</ele>
        <time>2013-08-17T07:50:42Z</time>
      </trkpt>
      <trkpt lat="42.4678" lon="2.086">
        <ele>1637.1</ele>
        <time>2013-08-17T07:50:47Z</time>
      </trkpt>
      <trkpt lat="42.46777" lon="2.08597">
        <ele>1637.9</ele>
        <time>2013-08-17T07:50:53Z</time>
      </trkpt>
      <trkpt lat="42.46772" lon="2.08595">
        <ele>1639</ele>
        <time>2013-08-17T07:50:58Z</time>
      </trkpt>
      <trkpt lat="42.46768" lon="2.08593">
        <ele>1639.6</ele>
        <time>2013-08-17T07:51:06Z</time>
      </trkpt>
      <trkpt lat="42.46768" lon="2.08593">
        <ele>1639.9</ele>
        <time>2013-08-17T07:51:07Z</time>
      </trkpt>
      <trkpt lat="42.4676" lon="2.08591">
        <ele>1640.5</ele>
        <time>2013-08-17T07:51:15Z</time>
      </trkpt>
      <trkpt lat="42.46756" lon="2.08589">
        <ele>1641</ele>
        <time>2013-08-17T07:51:19Z</time>
      </trkpt>
      <trkpt lat="42.46752" lon="2.08588">
        <ele>1641.6</ele>
        <time>2013-08-17T07:51:23Z</time>
      </trkpt>
      <trkpt lat="42.46749" lon="2.08585">
        <ele>1642.1</ele>
        <time>2013-08-17T07:51:27Z</time>
      </trkpt>
      <trkpt lat="42.46746" lon="2.08582">
        <ele>1643.1</ele>
        <time>2013-08-17T07:51:31Z</time>
      </trkpt>
      <trkpt lat="42.46744" lon="2.08578">
        <ele>1643.6</ele>
        <time>2013-08-17T07:51:34Z</time>
      </trkpt>
      <trkpt lat="42.46741" lon="2.08574">
        <ele>1644.4</ele>
        <time>2013-08-17T07:51:37Z</time>
      </trkpt>
      <trkpt lat="42.46738" lon="2.08571">
        <ele>1644.7</ele>
        <time>2013-08-17T07:51:40Z</time>
      </trkpt>
      <trkpt lat="42.46735" lon="2.08568">
        <ele>1645.2</ele>
        <time>2013-08-17T07:51:43Z</time>
      </trkpt>
      <trkpt lat="42.46733" lon="2.08564">
        <ele>1645.8</ele>
        <time>2013-08-17T07:51:46Z</time>
      </trkpt>
      <trkpt lat="42.4673" lon="2.0856">
        <ele>1645.9</ele>
        <time>2013-08-17T07:51:50Z</time>
      </trkpt>
      <trkpt lat="42.46726" lon="2.08558">
        <ele>1647.4</ele>
        <time>2013-08-17T07:52:16Z</time>
      </trkpt>
      <trkpt lat="42.46725" lon="2.08558">
        <ele>1647.5</ele>
        <time>2013-08-17T07:52:17Z</time>
      </trkpt>
      <trkpt lat="42.46718" lon="2.08552">
        <ele>1646.6</ele>
        <time>2013-08-17T07:52:46Z</time>
      </trkpt>
      <trkpt lat="42.46715" lon="2.0855">
        <ele>1646.8</ele>
        <time>2013-08-17T07:52:50Z</time>
      </trkpt>
      <trkpt lat="42.46711" lon="2.0855">
        <ele>1647.6</ele>
        <time>2013-08-17T07:52:54Z</time>
      </trkpt>
      <trkpt lat="42.46708" lon="2.08549">
        <ele>1648</ele>
        <time>2013-08-17T07:52:57Z</time>
      </trkpt>
      <trkpt lat="42.46704" lon="2.0855">
        <ele>1647.5</ele>
        <time>2013-08-17T07:53:01Z</time>
      </trkpt>
      <trkpt lat="42.467" lon="2.0855">
        <ele>1647.1</ele>
        <time>2013-08-17T07:53:06Z</time>
      </trkpt>
      <trkpt lat="42.46696" lon="2.08549">
        <ele>1647.4</ele>
        <time>2013-08-17T07:53:09Z</time>
      </trkpt>
      <trkpt lat="42.46695" lon="2.08544">
        <ele>1647.8</ele>
        <time>2013-08-17T07:53:12Z</time>
      </trkpt>
      <trkpt lat="42.46693" lon="2.0854">
        <ele>1648.2</ele>
        <time>2013-08-17T07:53:15Z</time>
      </trkpt>
      <trkpt lat="42.46689" lon="2.08539">
        <ele>1648.5</ele>
        <time>2013-08-17T07:53:18Z</time>
      </trkpt>
      <trkpt lat="42.46689" lon="2.08538">
        <ele>1648.6</ele>
        <time>2013-08-17T07:53:19Z</time>
      </trkpt>
      <trkpt lat="42.46681" lon="2.08537">
        <ele>1649.3</ele>
        <time>2013-08-17T07:53:28Z</time>
      </trkpt>
      <trkpt lat="42.46677" lon="2.08538">
        <ele>1650.4</ele>
        <time>2013-08-17T07:53:32Z</time>
      </trkpt>
      <trkpt lat="42.46674" lon="2.08538">
        <ele>1650.9</ele>
        <time>2013-08-17T07:53:35Z</time>
      </trkpt>
      <trkpt lat="42.4667" lon="2.0854">
        <ele>1650.6</ele>
        <time>2013-08-17T07:53:40Z</time>
      </trkpt>
      <trkpt lat="42.46667" lon="2.08542">
        <ele>1650.8</ele>
        <time>2013-08-17T07:53:43Z</time>
      </trkpt>
      <trkpt lat="42.46663" lon="2.08545">
        <ele>1650.4</ele>
        <time>2013-08-17T07:53:46Z</time>
      </trkpt>
      <trkpt lat="42.46659" lon="2.08547">
        <ele>1650.9</ele>
        <time>2013-08-17T07:53:51Z</time>
      </trkpt>
      <trkpt lat="42.46656" lon="2.0855">
        <ele>1652</ele>
        <time>2013-08-17T07:53:55Z</time>
      </trkpt>
      <trkpt lat="42.46653" lon="2.08553">
        <ele>1652.6</ele>
        <time>2013-08-17T07:53:58Z</time>
      </trkpt>
      <trkpt lat="42.4665" lon="2.08557">
        <ele>1652.9</ele>
        <time>2013-08-17T07:54:01Z</time>
      </trkpt>
      <trkpt lat="42.46647" lon="2.08559">
        <ele>1652.8</ele>
        <time>2013-08-17T07:54:04Z</time>
      </trkpt>
      <trkpt lat="42.46643" lon="2.08561">
        <ele>1653.8</ele>
        <time>2013-08-17T07:54:08Z</time>
      </trkpt>
      <trkpt lat="42.46639" lon="2.08562">
        <ele>1654.8</ele>
        <time>2013-08-17T07:54:13Z</time>
      </trkpt>
      <trkpt lat="42.46635" lon="2.08564">
        <ele>1655.2</ele>
        <time>2013-08-17T07:54:18Z</time>
      </trkpt>
      <trkpt lat="42.46631" lon="2.08566">
        <ele>1655.6</ele>
        <time>2013-08-17T07:54:23Z</time>
      </trkpt>
      <trkpt lat="42.4663" lon="2.08565">
        <ele>1655.5</ele>
        <time>2013-08-17T07:54:24Z</time>
      </trkpt>
      <trkpt lat="42.46623" lon="2.08567">
        <ele>1656.5</ele>
        <time>2013-08-17T07:54:35Z</time>
      </trkpt>
      <trkpt lat="42.46619" lon="2.08567">
        <ele>1658.8</ele>
        <time>2013-08-17T07:54:42Z</time>
      </trkpt>
      <trkpt lat="42.46616" lon="2.08571">
        <ele>1658.1</ele>
        <time>2013-08-17T07:54:48Z</time>
      </trkpt>
      <trkpt lat="42.46613" lon="2.08574">
        <ele>1659.9</ele>
        <time>2013-08-17T07:54:52Z</time>
      </trkpt>
      <trkpt lat="42.46609" lon="2.08576">
        <ele>1661.1</ele>
        <time>2013-08-17T07:55:00Z</time>
      </trkpt>
      <trkpt lat="42.46605" lon="2.08577">
        <ele>1662.4</ele>
        <time>2013-08-17T07:55:06Z</time>
      </trkpt>
      <trkpt lat="42.46601" lon="2.08579">
        <ele>1663.5</ele>
        <time>2013-08-17T07:55:14Z</time>
      </trkpt>
      <trkpt lat="42.46598" lon="2.08583">
        <ele>1664.5</ele>
        <time>2013-08-17T07:55:22Z</time>
      </trkpt>
      <trkpt lat="42.46595" lon="2.08587">
        <ele>1665.6</ele>
        <time>2013-08-17T07:55:28Z</time>
      </trkpt>
      <trkpt lat="42.46595" lon="2.08587">
        <ele>1665.8</ele>
        <time>2013-08-17T07:55:29Z</time>
      </trkpt>
      <trkpt lat="42.46588" lon="2.08591">
        <ele>1666.9</ele>
        <time>2013-08-17T07:55:37Z</time>
      </trkpt>
      <trkpt lat="42.46585" lon="2.08593">
        <ele>1667</ele>
        <time>2013-08-17T07:55:41Z</time>
      </trkpt>
      <trkpt lat="42.46582" lon="2.08596">
        <ele>1667.5</ele>
        <time>2013-08-17T07:55:46Z</time>
      </trkpt>
      <trkpt lat="42.46578" lon="2.08599">
        <ele>1668.6</ele>
        <time>2013-08-17T07:55:52Z</time>
      </trkpt>
      <trkpt lat="42.46575" lon="2.08603">
        <ele>1670</ele>
        <time>2013-08-17T07:55:58Z</time>
      </trkpt>
      <trkpt lat="42.46572" lon="2.08607">
        <ele>1670.3</ele>
        <time>2013-08-17T07:56:03Z</time>
      </trkpt>
      <trkpt lat="42.46569" lon="2.08611">
        <ele>1671</ele>
        <time>2013-08-17T07:56:09Z</time>
      </trkpt>
      <trkpt lat="42.46566" lon="2.08615">
        <ele>1671.8</ele>
        <time>2013-08-17T07:56:14Z</time>
      </trkpt>
      <trkpt lat="42.46564" lon="2.08619">
        <ele>1672.2</ele>
        <time>2013-08-17T07:56:19Z</time>
      </trkpt>
      <trkpt lat="42.46562" lon="2.08624">
        <ele>1673.9</ele>
        <time>2013-08-17T07:56:25Z</time>
      </trkpt>
      <trkpt lat="42.4656" lon="2.08629">
        <ele>1675.2</ele>
        <time>2013-08-17T07:56:33Z</time>
      </trkpt>
      <trkpt lat="42.46559" lon="2.0863">
        <ele>1675.5</ele>
        <time>2013-08-17T07:56:34Z</time>
      </trkpt>
      <trkpt lat="42.46553" lon="2.08638">
        <ele>1677.1</ele>
        <time>2013-08-17T07:56:47Z</time>
      </trkpt>
      <trkpt lat="42.4655" lon="2.08642">
        <ele>1678.7</ele>
        <time>2013-08-17T07:56:54Z</time>
      </trkpt>
      <trkpt lat="42.46547" lon="2.08646">
        <ele>1679.8</ele>
        <time>2013-08-17T07:57:01Z</time>
      </trkpt>
      <trkpt lat="42.46544" lon="2.0865">
        <ele>1680.5</ele>
        <time>2013-08-17T07:57:06Z</time>
      </trkpt>
      <trkpt lat="42.46542" lon="2.08654">
        <ele>1681.3</ele>
        <time>2013-08-17T07:57:12Z</time>
      </trkpt>
      <trkpt lat="42.4654" lon="2.08659">
        <ele>1682.1</ele>
        <time>2013-08-17T07:57:18Z</time>
      </trkpt>
      <trkpt lat="42.46538" lon="2.08664">
        <ele>1682.9</ele>
        <time>2013-08-17T07:57:26Z</time>
      </trkpt>
      <trkpt lat="42.46536" lon="2.08669">
        <ele>1683.1</ele>
        <time>2013-08-17T07:57:31Z</time>
      </trkpt>
      <trkpt lat="42.46535" lon="2.08675">
        <ele>1684.8</ele>
        <time>2013-08-17T07:57:37Z</time>
      </trkpt>
      <trkpt lat="42.46535" lon="2.08676">
        <ele>1685</ele>
        <time>2013-08-17T07:57:38Z</time>
      </trkpt>
      <trkpt lat="42.46532" lon="2.08686">
        <ele>1686.7</ele>
        <time>2013-08-17T07:58:00Z</time>
      </trkpt>
      <trkpt lat="42.46531" lon="2.08691">
        <ele>1687.3</ele>
        <time>2013-08-17T07:58:08Z</time>
      </trkpt>
      <trkpt lat="42.4653" lon="2.08696">
        <ele>1688.4</ele>
        <time>2013-08-17T07:58:14Z</time>
      </trkpt>
      <trkpt lat="42.46528" lon="2.08702">
        <ele>1689.5</ele>
        <time>2013-08-17T07:58:27Z</time>
      </trkpt>
      <trkpt lat="42.46525" lon="2.08706">
        <ele>1690.6</ele>
        <time>2013-08-17T07:58:37Z</time>
      </trkpt>
      <trkpt lat="42.46523" lon="2.08711">
        <ele>1691.1</ele>
        <time>2013-08-17T07:58:44Z</time>
      </trkpt>
      <trkpt lat="42.46522" lon="2.08711">
        <ele>1691.5</ele>
        <time>2013-08-17T07:58:45Z</time>
      </trkpt>
      <trkpt lat="42.46517" lon="2.08719">
        <ele>1693.8</ele>
        <time>2013-08-17T07:58:56Z</time>
      </trkpt>
      <trkpt lat="42.46515" lon="2.08723">
        <ele>1694.7</ele>
        <time>2013-08-17T07:59:01Z</time>
      </trkpt>
      <trkpt lat="42.46513" lon="2.08728">
        <ele>1695.6</ele>
        <time>2013-08-17T07:59:08Z</time>
      </trkpt>
      <trkpt lat="42.4651" lon="2.08732">
        <ele>1696.3</ele>
        <time>2013-08-17T07:59:15Z</time>
      </trkpt>
      <trkpt lat="42.46507" lon="2.08736">
        <ele>1697.3</ele>
        <time>2013-08-17T07:59:21Z</time>
      </trkpt>
      <trkpt lat="42.46506" lon="2.08741">
        <ele>1697.6</ele>
        <time>2013-08-17T07:59:27Z</time>
      </trkpt>
      <trkpt lat="42.46503" lon="2.08746">
        <ele>1699</ele>
        <time>2013-08-17T07:59:34Z</time>
      </trkpt>
      <trkpt lat="42.46501" lon="2.0875">
        <ele>1700.6</ele>
        <time>2013-08-17T07:59:39Z</time>
      </trkpt>
      <trkpt lat="42.46499" lon="2.08755">
        <ele>1700.7</ele>
        <time>2013-08-17T07:59:45Z</time>
      </trkpt>
      <trkpt lat="42.46499" lon="2.08756">
        <ele>1701</ele>
        <time>2013-08-17T07:59:46Z</time>
      </trkpt>
      <trkpt lat="42.46497" lon="2.08766">
        <ele>1701.6</ele>
        <time>2013-08-17T08:00:29Z</time>
      </trkpt>
      <trkpt lat="42.46493" lon="2.08767">
        <ele>1701.9</ele>
        <time>2013-08-17T08:01:25Z</time>
      </trkpt>
      <trkpt lat="42.46493" lon="2.08767">
        <ele>1701.9</ele>
        <time>2013-08-17T08:01:26Z</time>
      </trkpt>
      <trkpt lat="42.46488" lon="2.08775">
        <ele>1703.4</ele>
        <time>2013-08-17T08:01:47Z</time>
      </trkpt>
      <trkpt lat="42.46485" lon="2.08779">
        <ele>1703.8</ele>
        <time>2013-08-17T08:01:53Z</time>
      </trkpt>
      <trkpt lat="42.46482" lon="2.08783">
        <ele>1704.4</ele>
        <time>2013-08-17T08:01:58Z</time>
      </trkpt>
      <trkpt lat="42.46479" lon="2.08787">
        <ele>1705.3</ele>
        <time>2013-08-17T08:02:03Z</time>
      </trkpt>
      <trkpt lat="42.46476" lon="2.08791">
        <ele>1706</ele>
        <time>2013-08-17T08:02:06Z</time>
      </trkpt>
      <trkpt lat="42.46474" lon="2.08795">
        <ele>1706.7</ele>
        <time>2013-08-17T08:02:13Z</time>
      </trkpt>
      <trkpt lat="42.46471" lon="2.08798">
        <ele>1707</ele>
        <time>2013-08-17T08:02:17Z</time>
      </trkpt>
      <trkpt lat="42.46468" lon="2.08803">
        <ele>1707.9</ele>
        <time>2013-08-17T08:02:22Z</time>
      </trkpt>
      <trkpt lat="42.46468" lon="2.08809">
        <ele>1708.3</ele>
        <time>2013-08-17T08:02:27Z</time>
      </trkpt>
      <trkpt lat="42.46468" lon="2.0881">
        <ele>1708.4</ele>
        <time>2013-08-17T08:02:28Z</time>
      </trkpt>
      <trkpt lat="42.46464" lon="2.08816">
        <ele>1709</ele>
        <time>2013-08-17T08:02:33Z</time>
      </trkpt>
      <trkpt lat="42.4646" lon="2.08818">
        <ele>1710.1</ele>
        <time>2013-08-17T08:02:38Z</time>
      </trkpt>
      <trkpt lat="42.46456" lon="2.08818">
        <ele>1710.8</ele>
        <time>2013-08-17T08:02:44Z</time>
      </trkpt>
      <trkpt lat="42.46452" lon="2.08817">
        <ele>1711</ele>
        <time>2013-08-17T08:02:50Z</time>
      </trkpt>
      <trkpt lat="42.46449" lon="2.08816">
        <ele>1711.8</ele>
        <time>2013-08-17T08:02:54Z</time>
      </trkpt>
      <trkpt lat="42.46445" lon="2.08815">
        <ele>1711.8</ele>
        <time>2013-08-17T08:02:58Z</time>
      </trkpt>
      <trkpt lat="42.46442" lon="2.08819">
        <ele>1712.7</ele>
        <time>2013-08-17T08:03:05Z</time>
      </trkpt>
      <trkpt lat="42.46439" lon="2.08823">
        <ele>1713.3</ele>
        <time>2013-08-17T08:03:09Z</time>
      </trkpt>
      <trkpt lat="42.46436" lon="2.08827">
        <ele>1713.6</ele>
        <time>2013-08-17T08:03:14Z</time>
      </trkpt>
      <trkpt lat="42.46434" lon="2.08831">
        <ele>1713.4</ele>
        <time>2013-08-17T08:03:20Z</time>
      </trkpt>
      <trkpt lat="42.46431" lon="2.08835">
        <ele>1713.8</ele>
        <time>2013-08-17T08:03:24Z</time>
      </trkpt>
      <trkpt lat="42.46428" lon="2.08839">
        <ele>1713.7</ele>
        <time>2013-08-17T08:03:27Z</time>
      </trkpt>
      <trkpt lat="42.46425" lon="2.08844">
        <ele>1714.1</ele>
        <time>2013-08-17T08:03:30Z</time>
      </trkpt>
      <trkpt lat="42.46424" lon="2.08845">
        <ele>1714.2</ele>
        <time>2013-08-17T08:03:31Z</time>
      </trkpt>
      <trkpt lat="42.4642" lon="2.08852">
        <ele>1714.1</ele>
        <time>2013-08-17T08:03:36Z</time>
      </trkpt>
      <trkpt lat="42.46418" lon="2.08856">
        <ele>1713.9</ele>
        <time>2013-08-17T08:03:39Z</time>
      </trkpt>
      <trkpt lat="42.46415" lon="2.0886">
        <ele>1714.5</ele>
        <time>2013-08-17T08:03:43Z</time>
      </trkpt>
      <trkpt lat="42.46413" lon="2.08864">
        <ele>1714.9</ele>
        <time>2013-08-17T08:03:46Z</time>
      </trkpt>
      <trkpt lat="42.4641" lon="2.08868">
        <ele>1715.4</ele>
        <time>2013-08-17T08:03:49Z</time>
      </trkpt>
      <trkpt lat="42.46407" lon="2.08872">
        <ele>1715.6</ele>
        <time>2013-08-17T08:03:52Z</time>
      </trkpt>
      <trkpt lat="42.46405" lon="2.08877">
        <ele>1715.3</ele>
        <time>2013-08-17T08:03:55Z</time>
      </trkpt>
      <trkpt lat="42.46403" lon="2.08881">
        <ele>1715.6</ele>
        <time>2013-08-17T08:03:58Z</time>
      </trkpt>
      <trkpt lat="42.464" lon="2.08885">
        <ele>1716.2</ele>
        <time>2013-08-17T08:04:03Z</time>
      </trkpt>
      <trkpt lat="42.46397" lon="2.08889">
        <ele>1716.7</ele>
        <time>2013-08-17T08:04:07Z</time>
      </trkpt>
      <trkpt lat="42.46394" lon="2.08893">
        <ele>1716.9</ele>
        <time>2013-08-17T08:04:11Z</time>
      </trkpt>
      <trkpt lat="42.46391" lon="2.08896">
        <ele>1716.8</ele>
        <time>2013-08-17T08:04:14Z</time>
      </trkpt>
      <trkpt lat="42.46387" lon="2.08899">
        <ele>1717.1</ele>
        <time>2013-08-17T08:04:18Z</time>
      </trkpt>
      <trkpt lat="42.46384" lon="2.08902">
        <ele>1717.5</ele>
        <time>2013-08-17T08:04:22Z</time>
      </trkpt>
      <trkpt lat="42.46381" lon="2.08907">
        <ele>1717.5</ele>
        <time>2013-08-17T08:04:27Z</time>
      </trkpt>
      <trkpt lat="42.46378" lon="2.08909">
        <ele>1718.1</ele>
        <time>2013-08-17T08:04:31Z</time>
      </trkpt>
      <trkpt lat="42.46377" lon="2.08911">
        <ele>1718.2</ele>
        <time>2013-08-17T08:04:32Z</time>
      </trkpt>
      <trkpt lat="42.46372" lon="2.08915">
        <ele>1719</ele>
        <time>2013-08-17T08:04:40Z</time>
      </trkpt>
      <trkpt lat="42.46368" lon="2.08919">
        <ele>1719.4</ele>
        <time>2013-08-17T08:04:46Z</time>
      </trkpt>
      <trkpt lat="42.46366" lon="2.08921">
        <ele>1719.7</ele>
        <time>2013-08-17T08:04:49Z</time>
      </trkpt>
      <trkpt lat="42.46363" lon="2.08925">
        <ele>1719.9</ele>
        <time>2013-08-17T08:04:53Z</time>
      </trkpt>
      <trkpt lat="42.46361" lon="2.08929">
        <ele>1720.2</ele>
        <time>2013-08-17T08:04:57Z</time>
      </trkpt>
      <trkpt lat="42.4636" lon="2.08933">
        <ele>1720.3</ele>
        <time>2013-08-17T08:04:59Z</time>
      </trkpt>
      <trkpt lat="42.46359" lon="2.08938">
        <ele>1720.3</ele>
        <time>2013-08-17T08:05:01Z</time>
      </trkpt>
      <trkpt lat="42.46356" lon="2.08942">
        <ele>1721.2</ele>
        <time>2013-08-17T08:05:04Z</time>
      </trkpt>
      <trkpt lat="42.46355" lon="2.08947">
        <ele>1720.5</ele>
        <time>2013-08-17T08:05:07Z</time>
      </trkpt>
      <trkpt lat="42.46353" lon="2.08952">
        <ele>1720.8</ele>
        <time>2013-08-17T08:05:11Z</time>
      </trkpt>
      <trkpt lat="42.4635" lon="2.08956">
        <ele>1720.6</ele>
        <time>2013-08-17T08:05:14Z</time>
      </trkpt>
      <trkpt lat="42.46348" lon="2.08961">
        <ele>1721.1</ele>
        <time>2013-08-17T08:05:19Z</time>
      </trkpt>
      <trkpt lat="42.46346" lon="2.08966">
        <ele>1721.3</ele>
        <time>2013-08-17T08:05:23Z</time>
      </trkpt>
      <trkpt lat="42.46344" lon="2.0897">
        <ele>1721</ele>
        <time>2013-08-17T08:05:42Z</time>
      </trkpt>
      <trkpt lat="42.46343" lon="2.08971">
        <ele>1721.3</ele>
        <time>2013-08-17T08:05:43Z</time>
      </trkpt>
      <trkpt lat="42.46342" lon="2.08981">
        <ele>1722.8</ele>
        <time>2013-08-17T08:05:52Z</time>
      </trkpt>
      <trkpt lat="42.46341" lon="2.08987">
        <ele>1722.4</ele>
        <time>2013-08-17T08:05:57Z</time>
      </trkpt>
      <trkpt lat="42.46339" lon="2.08992">
        <ele>1722.5</ele>
        <time>2013-08-17T08:06:03Z</time>
      </trkpt>
      <trkpt lat="42.46337" lon="2.08995">
        <ele>1722.9</ele>
        <time>2013-08-17T08:06:06Z</time>
      </trkpt>
      <trkpt lat="42.46334" lon="2.08998">
        <ele>1723.5</ele>
        <time>2013-08-17T08:06:09Z</time>
      </trkpt>
      <trkpt lat="42.46331" lon="2.09003">
        <ele>1723.9</ele>
        <time>2013-08-17T08:06:13Z</time>
      </trkpt>
      <trkpt lat="42.46328" lon="2.09006">
        <ele>1724.1</ele>
        <time>2013-08-17T08:06:16Z</time>
      </trkpt>
      <trkpt lat="42.46325" lon="2.0901">
        <ele>1724.4</ele>
        <time>2013-08-17T08:06:19Z</time>
      </trkpt>
      <trkpt lat="42.46323" lon="2.09013">
        <ele>1724.8</ele>
        <time>2013-08-17T08:06:21Z</time>
      </trkpt>
      <trkpt lat="42.46319" lon="2.09017">
        <ele>1724.1</ele>
        <time>2013-08-17T08:06:24Z</time>
      </trkpt>
      <trkpt lat="42.46316" lon="2.0902">
        <ele>1723.4</ele>
        <time>2013-08-17T08:06:27Z</time>
      </trkpt>
      <trkpt lat="42.46314" lon="2.09024">
        <ele>1723.9</ele>
        <time>2013-08-17T08:06:29Z</time>
      </trkpt>
      <trkpt lat="42.46311" lon="2.09026">
        <ele>1724.1</ele>
        <time>2013-08-17T08:06:32Z</time>
      </trkpt>
      <trkpt lat="42.46307" lon="2.09029">
        <ele>1723.6</ele>
        <time>2013-08-17T08:06:35Z</time>
      </trkpt>
      <trkpt lat="42.46305" lon="2.09032">
        <ele>1723.7</ele>
        <time>2013-08-17T08:06:38Z</time>
      </trkpt>
      <trkpt lat="42.46303" lon="2.09036">
        <ele>1724.5</ele>
        <time>2013-08-17T08:06:41Z</time>
      </trkpt>
      <trkpt lat="42.46301" lon="2.09041">
        <ele>1724.9</ele>
        <time>2013-08-17T08:06:50Z</time>
      </trkpt>
      <trkpt lat="42.463" lon="2.09042">
        <ele>1725.1</ele>
        <time>2013-08-17T08:06:51Z</time>
      </trkpt>
      <trkpt lat="42.46293" lon="2.09044">
        <ele>1725.7</ele>
        <time>2013-08-17T08:07:01Z</time>
      </trkpt>
      <trkpt lat="42.46289" lon="2.09047">
        <ele>1726.2</ele>
        <time>2013-08-17T08:07:05Z</time>
      </trkpt>
      <trkpt lat="42.46286" lon="2.09051">
        <ele>1726.1</ele>
        <time>2013-08-17T08:07:10Z</time>
      </trkpt>
      <trkpt lat="42.46282" lon="2.09052">
        <ele>1726.9</ele>
        <time>2013-08-17T08:07:17Z</time>
      </trkpt>
      <trkpt lat="42.46278" lon="2.09054">
        <ele>1727</ele>
        <time>2013-08-17T08:07:21Z</time>
      </trkpt>
      <trkpt lat="42.46275" lon="2.09058">
        <ele>1727</ele>
        <time>2013-08-17T08:07:24Z</time>
      </trkpt>
      <trkpt lat="42.46272" lon="2.09061">
        <ele>1727.7</ele>
        <time>2013-08-17T08:07:27Z</time>
      </trkpt>
      <trkpt lat="42.46269" lon="2.09062">
        <ele>1728.1</ele>
        <time>2013-08-17T08:07:30Z</time>
      </trkpt>
      <trkpt lat="42.46266" lon="2.09065">
        <ele>1728.9</ele>
        <time>2013-08-17T08:07:33Z</time>
      </trkpt>
      <trkpt lat="42.46262" lon="2.09068">
        <ele>1728.8</ele>
        <time>2013-08-17T08:07:36Z</time>
      </trkpt>
      <trkpt lat="42.46259" lon="2.0907">
        <ele>1729.1</ele>
        <time>2013-08-17T08:07:39Z</time>
      </trkpt>
      <trkpt lat="42.46254" lon="2.09071">
        <ele>1729.6</ele>
        <time>2013-08-17T08:07:43Z</time>
      </trkpt>
      <trkpt lat="42.46251" lon="2.09073">
        <ele>1729.7</ele>
        <time>2013-08-17T08:07:48Z</time>
      </trkpt>
      <trkpt lat="42.46247" lon="2.09075">
        <ele>1730.6</ele>
        <time>2013-08-17T08:07:57Z</time>
      </trkpt>
      <trkpt lat="42.46246" lon="2.09075">
        <ele>1730.6</ele>
        <time>2013-08-17T08:07:58Z</time>
      </trkpt>
      <trkpt lat="42.4624" lon="2.09082">
        <ele>1731.9</ele>
        <time>2013-08-17T08:08:07Z</time>
      </trkpt>
      <trkpt lat="42.46238" lon="2.09086">
        <ele>1732</ele>
        <time>2013-08-17T08:08:11Z</time>
      </trkpt>
      <trkpt lat="42.46235" lon="2.09087">
        <ele>1731.6</ele>
        <time>2013-08-17T08:08:16Z</time>
      </trkpt>
      <trkpt lat="42.46231" lon="2.09089">
        <ele>1732.5</ele>
        <time>2013-08-17T08:08:19Z</time>
      </trkpt>
      <trkpt lat="42.46227" lon="2.09092">
        <ele>1732.9</ele>
        <time>2013-08-17T08:08:22Z</time>
      </trkpt>
      <trkpt lat="42.46223" lon="2.09094">
        <ele>1732.2</ele>
        <time>2013-08-17T08:08:26Z</time>
      </trkpt>
      <trkpt lat="42.46219" lon="2.09096">
        <ele>1731.8</ele>
        <time>2013-08-17T08:08:30Z</time>
      </trkpt>
      <trkpt lat="42.46216" lon="2.09096">
        <ele>1732.2</ele>
        <time>2013-08-17T08:08:34Z</time>
      </trkpt>
      <trkpt lat="42.46211" lon="2.09096">
        <ele>1733.1</ele>
        <time>2013-08-17T08:08:39Z</time>
      </trkpt>
      <trkpt lat="42.46208" lon="2.09097">
        <ele>1733.6</ele>
        <time>2013-08-17T08:08:43Z</time>
      </trkpt>
      <trkpt lat="42.46204" lon="2.09098">
        <ele>1733.9</ele>
        <time>2013-08-17T08:08:47Z</time>
      </trkpt>
      <trkpt lat="42.462" lon="2.09098">
        <ele>1734.3</ele>
        <time>2013-08-17T08:08:53Z</time>
      </trkpt>
      <trkpt lat="42.46196" lon="2.09097">
        <ele>1735</ele>
        <time>2013-08-17T08:08:58Z</time>
      </trkpt>
      <trkpt lat="42.46194" lon="2.09098">
        <ele>1734.9</ele>
        <time>2013-08-17T08:08:59Z</time>
      </trkpt>
      <trkpt lat="42.46189" lon="2.09101">
        <ele>1735.7</ele>
        <time>2013-08-17T08:09:04Z</time>
      </trkpt>
      <trkpt lat="42.46186" lon="2.09105">
        <ele>1735.5</ele>
        <time>2013-08-17T08:09:08Z</time>
      </trkpt>
      <trkpt lat="42.46184" lon="2.0911">
        <ele>1735.8</ele>
        <time>2013-08-17T08:09:12Z</time>
      </trkpt>
      <trkpt lat="42.4618" lon="2.09112">
        <ele>1736.3</ele>
        <time>2013-08-17T08:09:17Z</time>
      </trkpt>
      <trkpt lat="42.46177" lon="2.09115">
        <ele>1736.4</ele>
        <time>2013-08-17T08:09:23Z</time>
      </trkpt>
      <trkpt lat="42.46174" lon="2.0912">
        <ele>1737.1</ele>
        <time>2013-08-17T08:09:28Z</time>
      </trkpt>
      <trkpt lat="42.4617" lon="2.09124">
        <ele>1737.6</ele>
        <time>2013-08-17T08:09:36Z</time>
      </trkpt>
      <trkpt lat="42.46167" lon="2.09126">
        <ele>1737.6</ele>
        <time>2013-08-17T08:09:43Z</time>
      </trkpt>
      <trkpt lat="42.46163" lon="2.09127">
        <ele>1738.5</ele>
        <time>2013-08-17T08:09:48Z</time>
      </trkpt>
      <trkpt lat="42.46159" lon="2.09128">
        <ele>1739.3</ele>
        <time>2013-08-17T08:09:52Z</time>
      </trkpt>
      <trkpt lat="42.46155" lon="2.09129">
        <ele>1739.7</ele>
        <time>2013-08-17T08:09:56Z</time>
      </trkpt>
      <trkpt lat="42.46152" lon="2.09133">
        <ele>1740</ele>
        <time>2013-08-17T08:10:01Z</time>
      </trkpt>
      <trkpt lat="42.46151" lon="2.09134">
        <ele>1740.2</ele>
        <time>2013-08-17T08:10:02Z</time>
      </trkpt>
      <trkpt lat="42.46145" lon="2.09139">
        <ele>1741.4</ele>
        <time>2013-08-17T08:10:11Z</time>
      </trkpt>
      <trkpt lat="42.46142" lon="2.09142">
        <ele>1742.4</ele>
        <time>2013-08-17T08:10:18Z</time>
      </trkpt>
      <trkpt lat="42.46138" lon="2.09142">
        <ele>1743.6</ele>
        <time>2013-08-17T08:10:27Z</time>
      </trkpt>
      <trkpt lat="42.46135" lon="2.09142">
        <ele>1744.4</ele>
        <time>2013-08-17T08:10:33Z</time>
      </trkpt>
      <trkpt lat="42.4613" lon="2.09141">
        <ele>1745.1</ele>
        <time>2013-08-17T08:10:39Z</time>
      </trkpt>
      <trkpt lat="42.46127" lon="2.09141">
        <ele>1745.3</ele>
        <time>2013-08-17T08:10:46Z</time>
      </trkpt>
      <trkpt lat="42.46123" lon="2.09143">
        <ele>1746.5</ele>
        <time>2013-08-17T08:10:55Z</time>
      </trkpt>
      <trkpt lat="42.46122" lon="2.09137">
        <ele>1747.5</ele>
        <time>2013-08-17T08:11:13Z</time>
      </trkpt>
      <trkpt lat="42.46122" lon="2.09137">
        <ele>1747.5</ele>
        <time>2013-08-17T08:11:14Z</time>
      </trkpt>
      <trkpt lat="42.46118" lon="2.09132">
        <ele>1746.6</ele>
        <time>2013-08-17T08:11:34Z</time>
      </trkpt>
      <trkpt lat="42.46115" lon="2.09136">
        <ele>1747.1</ele>
        <time>2013-08-17T08:11:39Z</time>
      </trkpt>
      <trkpt lat="42.46111" lon="2.0914">
        <ele>1747.8</ele>
        <time>2013-08-17T08:11:52Z</time>
      </trkpt>
      <trkpt lat="42.46113" lon="2.09145">
        <ele>1747.8</ele>
        <time>2013-08-17T08:12:14Z</time>
      </trkpt>
      <trkpt lat="42.46114" lon="2.09145">
        <ele>1747.8</ele>
        <time>2013-08-17T08:12:15Z</time>
      </trkpt>
      <trkpt lat="42.46118" lon="2.09154">
        <ele>1747.6</ele>
        <time>2013-08-17T08:12:39Z</time>
      </trkpt>
      <trkpt lat="42.46114" lon="2.09154">
        <ele>1748.3</ele>
        <time>2013-08-17T08:12:55Z</time>
      </trkpt>
      <trkpt lat="42.4611" lon="2.09152">
        <ele>1747.8</ele>
        <time>2013-08-17T08:13:04Z</time>
      </trkpt>
      <trkpt lat="42.46106" lon="2.09152">
        <ele>1747.4</ele>
        <time>2013-08-17T08:13:16Z</time>
      </trkpt>
      <trkpt lat="42.46105" lon="2.09153">
        <ele>1747.7</ele>
        <time>2013-08-17T08:13:17Z</time>
      </trkpt>
      <trkpt lat="42.46104" lon="2.09163">
        <ele>1748.6</ele>
        <time>2013-08-17T08:13:30Z</time>
      </trkpt>
      <trkpt lat="42.46103" lon="2.09168">
        <ele>1748.9</ele>
        <time>2013-08-17T08:13:34Z</time>
      </trkpt>
      <trkpt lat="42.46101" lon="2.09176">
        <ele>1748</ele>
        <time>2013-08-17T08:13:40Z</time>
      </trkpt>
      <trkpt lat="42.46098" lon="2.0918">
        <ele>1750.1</ele>
        <time>2013-08-17T08:13:46Z</time>
      </trkpt>
      <trkpt lat="42.46096" lon="2.09185">
        <ele>1750.1</ele>
        <time>2013-08-17T08:13:51Z</time>
      </trkpt>
      <trkpt lat="42.46095" lon="2.0919">
        <ele>1749.6</ele>
        <time>2013-08-17T08:13:55Z</time>
      </trkpt>
      <trkpt lat="42.46093" lon="2.09195">
        <ele>1751.9</ele>
        <time>2013-08-17T08:14:02Z</time>
      </trkpt>
      <trkpt lat="42.46089" lon="2.09199">
        <ele>1751.5</ele>
        <time>2013-08-17T08:14:06Z</time>
      </trkpt>
      <trkpt lat="42.46089" lon="2.09203">
        <ele>1751.4</ele>
        <time>2013-08-17T08:14:10Z</time>
      </trkpt>
      <trkpt lat="42.46087" lon="2.09209">
        <ele>1751.9</ele>
        <time>2013-08-17T08:14:14Z</time>
      </trkpt>
      <trkpt lat="42.46085" lon="2.09213">
        <ele>1752.1</ele>
        <time>2013-08-17T08:14:19Z</time>
      </trkpt>
      <trkpt lat="42.46085" lon="2.09214">
        <ele>1752.3</ele>
        <time>2013-08-17T08:14:20Z</time>
      </trkpt>
      <trkpt lat="42.46082" lon="2.09223">
        <ele>1753.1</ele>
        <time>2013-08-17T08:14:26Z</time>
      </trkpt>
      <trkpt lat="42.46079" lon="2.09226">
        <ele>1753.9</ele>
        <time>2013-08-17T08:14:30Z</time>
      </trkpt>
      <trkpt lat="42.46075" lon="2.09229">
        <ele>1754.5</ele>
        <time>2013-08-17T08:14:37Z</time>
      </trkpt>
      <trkpt lat="42.46071" lon="2.09233">
        <ele>1755.3</ele>
        <time>2013-08-17T08:14:44Z</time>
      </trkpt>
      <trkpt lat="42.4607" lon="2.09238">
        <ele>1755</ele>
        <time>2013-08-17T08:14:48Z</time>
      </trkpt>
      <trkpt lat="42.46068" lon="2.09242">
        <ele>1755.2</ele>
        <time>2013-08-17T08:14:51Z</time>
      </trkpt>
      <trkpt lat="42.46065" lon="2.09247">
        <ele>1755.1</ele>
        <time>2013-08-17T08:14:55Z</time>
      </trkpt>
      <trkpt lat="42.46061" lon="2.09252">
        <ele>1756.3</ele>
        <time>2013-08-17T08:15:01Z</time>
      </trkpt>
      <trkpt lat="42.46057" lon="2.09256">
        <ele>1756.6</ele>
        <time>2013-08-17T08:15:05Z</time>
      </trkpt>
      <trkpt lat="42.46054" lon="2.09258">
        <ele>1757</ele>
        <time>2013-08-17T08:15:09Z</time>
      </trkpt>
      <trkpt lat="42.46052" lon="2.09263">
        <ele>1757.4</ele>
        <time>2013-08-17T08:15:13Z</time>
      </trkpt>
      <trkpt lat="42.46048" lon="2.09267">
        <ele>1757.2</ele>
        <time>2013-08-17T08:15:17Z</time>
      </trkpt>
      <trkpt lat="42.46045" lon="2.09271">
        <ele>1757.1</ele>
        <time>2013-08-17T08:15:20Z</time>
      </trkpt>
      <trkpt lat="42.46045" lon="2.09272">
        <ele>1757.5</ele>
        <time>2013-08-17T08:15:21Z</time>
      </trkpt>
      <trkpt lat="42.46041" lon="2.0928">
        <ele>1758.7</ele>
        <time>2013-08-17T08:15:29Z</time>
      </trkpt>
      <trkpt lat="42.46041" lon="2.09285">
        <ele>1758.9</ele>
        <time>2013-08-17T08:15:32Z</time>
      </trkpt>
      <trkpt lat="42.46039" lon="2.0929">
        <ele>1759.3</ele>
        <time>2013-08-17T08:15:36Z</time>
      </trkpt>
      <trkpt lat="42.46038" lon="2.09296">
        <ele>1760.6</ele>
        <time>2013-08-17T08:15:40Z</time>
      </trkpt>
      <trkpt lat="42.46036" lon="2.09299">
        <ele>1761</ele>
        <time>2013-08-17T08:15:43Z</time>
      </trkpt>
      <trkpt lat="42.46035" lon="2.09304">
        <ele>1760.8</ele>
        <time>2013-08-17T08:15:47Z</time>
      </trkpt>
      <trkpt lat="42.46033" lon="2.0931">
        <ele>1760.8</ele>
        <time>2013-08-17T08:15:51Z</time>
      </trkpt>
      <trkpt lat="42.46031" lon="2.09314">
        <ele>1761.4</ele>
        <time>2013-08-17T08:15:57Z</time>
      </trkpt>
      <trkpt lat="42.46029" lon="2.09321">
        <ele>1761</ele>
        <time>2013-08-17T08:16:00Z</time>
      </trkpt>
      <trkpt lat="42.46025" lon="2.09333">
        <ele>1761</ele>
        <time>2013-08-17T08:16:04Z</time>
      </trkpt>
      <trkpt lat="42.46024" lon="2.09337">
        <ele>1761</ele>
        <time>2013-08-17T08:16:07Z</time>
      </trkpt>
      <trkpt lat="42.46021" lon="2.09342">
        <ele>1760.9</ele>
        <time>2013-08-17T08:16:11Z</time>
      </trkpt>
      <trkpt lat="42.46017" lon="2.09345">
        <ele>1761.4</ele>
        <time>2013-08-17T08:16:18Z</time>
      </trkpt>
      <trkpt lat="42.46014" lon="2.09348">
        <ele>1762.4</ele>
        <time>2013-08-17T08:16:27Z</time>
      </trkpt>
      <trkpt lat="42.46013" lon="2.09349">
        <ele>1762.4</ele>
        <time>2013-08-17T08:16:28Z</time>
      </trkpt>
      <trkpt lat="42.46009" lon="2.09356">
        <ele>1761.9</ele>
        <time>2013-08-17T08:16:35Z</time>
      </trkpt>
      <trkpt lat="42.46004" lon="2.09358">
        <ele>1762.8</ele>
        <time>2013-08-17T08:16:40Z</time>
      </trkpt>
      <trkpt lat="42.46002" lon="2.09363">
        <ele>1762.3</ele>
        <time>2013-08-17T08:16:44Z</time>
      </trkpt>
      <trkpt lat="42.45998" lon="2.09365">
        <ele>1762.6</ele>
        <time>2013-08-17T08:16:50Z</time>
      </trkpt>
      <trkpt lat="42.45995" lon="2.09368">
        <ele>1762.7</ele>
        <time>2013-08-17T08:16:54Z</time>
      </trkpt>
      <trkpt lat="42.45993" lon="2.09371">
        <ele>1762.9</ele>
        <time>2013-08-17T08:16:57Z</time>
      </trkpt>
      <trkpt lat="42.4599" lon="2.09376">
        <ele>1763.3</ele>
        <time>2013-08-17T08:17:01Z</time>
      </trkpt>
      <trkpt lat="42.45987" lon="2.09379">
        <ele>1764</ele>
        <time>2013-08-17T08:17:05Z</time>
      </trkpt>
      <trkpt lat="42.45984" lon="2.09382">
        <ele>1764.4</ele>
        <time>2013-08-17T08:17:10Z</time>
      </trkpt>
      <trkpt lat="42.4598" lon="2.09386">
        <ele>1764.4</ele>
        <time>2013-08-17T08:17:15Z</time>
      </trkpt>
      <trkpt lat="42.45976" lon="2.09389">
        <ele>1764.5</ele>
        <time>2013-08-17T08:17:19Z</time>
      </trkpt>
      <trkpt lat="42.45975" lon="2.09393">
        <ele>1764.5</ele>
        <time>2013-08-17T08:17:22Z</time>
      </trkpt>
      <trkpt lat="42.45972" lon="2.09398">
        <ele>1764.4</ele>
        <time>2013-08-17T08:17:25Z</time>
      </trkpt>
      <trkpt lat="42.45969" lon="2.09402">
        <ele>1764.8</ele>
        <time>2013-08-17T08:17:29Z</time>
      </trkpt>
      <trkpt lat="42.45968" lon="2.09403">
        <ele>1764.8</ele>
        <time>2013-08-17T08:17:30Z</time>
      </trkpt>
      <trkpt lat="42.45964" lon="2.09409">
        <ele>1765.3</ele>
        <time>2013-08-17T08:17:35Z</time>
      </trkpt>
      <trkpt lat="42.4596" lon="2.09412">
        <ele>1765.6</ele>
        <time>2013-08-17T08:17:38Z</time>
      </trkpt>
      <trkpt lat="42.45957" lon="2.09415">
        <ele>1765.9</ele>
        <time>2013-08-17T08:17:41Z</time>
      </trkpt>
      <trkpt lat="42.45953" lon="2.09417">
        <ele>1765.7</ele>
        <time>2013-08-17T08:17:46Z</time>
      </trkpt>
      <trkpt lat="42.4595" lon="2.09421">
        <ele>1765.7</ele>
        <time>2013-08-17T08:17:50Z</time>
      </trkpt>
      <trkpt lat="42.45948" lon="2.09425">
        <ele>1765.5</ele>
        <time>2013-08-17T08:18:01Z</time>
      </trkpt>
      <trkpt lat="42.45944" lon="2.09427">
        <ele>1766.4</ele>
        <time>2013-08-17T08:18:12Z</time>
      </trkpt>
      <trkpt lat="42.45941" lon="2.09432">
        <ele>1767.2</ele>
        <time>2013-08-17T08:18:21Z</time>
      </trkpt>
      <trkpt lat="42.45937" lon="2.09437">
        <ele>1767</ele>
        <time>2013-08-17T08:18:43Z</time>
      </trkpt>
      <trkpt lat="42.45937" lon="2.09438">
        <ele>1767.6</ele>
        <time>2013-08-17T08:18:47Z</time>
      </trkpt>
      <trkpt lat="42.45941" lon="2.0944">
        <ele>1767.3</ele>
        <time>2013-08-17T08:19:14Z</time>
      </trkpt>
      <trkpt lat="42.4594" lon="2.09444">
        <ele>1766.8</ele>
        <time>2013-08-17T08:19:16Z</time>
      </trkpt>
      <trkpt lat="42.45938" lon="2.09448">
        <ele>1766.4</ele>
        <time>2013-08-17T08:19:19Z</time>
      </trkpt>
      <trkpt lat="42.45935" lon="2.09452">
        <ele>1766</ele>
        <time>2013-08-17T08:19:22Z</time>
      </trkpt>
      <trkpt lat="42.45931" lon="2.09454">
        <ele>1766</ele>
        <time>2013-08-17T08:19:25Z</time>
      </trkpt>
      <trkpt lat="42.45929" lon="2.09456">
        <ele>1766.4</ele>
        <time>2013-08-17T08:19:27Z</time>
      </trkpt>
      <trkpt lat="42.45927" lon="2.09457">
        <ele>1766.6</ele>
        <time>2013-08-17T08:19:28Z</time>
      </trkpt>
      <trkpt lat="42.45924" lon="2.09459">
        <ele>1766.7</ele>
        <time>2013-08-17T08:19:30Z</time>
      </trkpt>
      <trkpt lat="42.45921" lon="2.09463">
        <ele>1766.4</ele>
        <time>2013-08-17T08:19:33Z</time>
      </trkpt>
      <trkpt lat="42.45919" lon="2.09468">
        <ele>1766.8</ele>
        <time>2013-08-17T08:19:41Z</time>
      </trkpt>
      <trkpt lat="42.45917" lon="2.09473">
        <ele>1766.6</ele>
        <time>2013-08-17T08:19:47Z</time>
      </trkpt>
      <trkpt lat="42.45917" lon="2.09474">
        <ele>1766.5</ele>
        <time>2013-08-17T08:19:48Z</time>
      </trkpt>
      <trkpt lat="42.45917" lon="2.09484">
        <ele>1766.3</ele>
        <time>2013-08-17T08:19:54Z</time>
      </trkpt>
      <trkpt lat="42.45915" lon="2.09489">
        <ele>1766.6</ele>
        <time>2013-08-17T08:19:58Z</time>
      </trkpt>
      <trkpt lat="42.45914" lon="2.09494">
        <ele>1767.7</ele>
        <time>2013-08-17T08:20:01Z</time>
      </trkpt>
      <trkpt lat="42.45913" lon="2.09499">
        <ele>1768.2</ele>
        <time>2013-08-17T08:20:03Z</time>
      </trkpt>
      <trkpt lat="42.45912" lon="2.09504">
        <ele>1767.4</ele>
        <time>2013-08-17T08:20:06Z</time>
      </trkpt>
      <trkpt lat="42.45911" lon="2.09509">
        <ele>1767</ele>
        <time>2013-08-17T08:20:12Z</time>
      </trkpt>
      <trkpt lat="42.45909" lon="2.09513">
        <ele>1768.1</ele>
        <time>2013-08-17T08:20:18Z</time>
      </trkpt>
      <trkpt lat="42.45906" lon="2.09518">
        <ele>1768.4</ele>
        <time>2013-08-17T08:20:23Z</time>
      </trkpt>
      <trkpt lat="42.45904" lon="2.09521">
        <ele>1768.5</ele>
        <time>2013-08-17T08:20:29Z</time>
      </trkpt>
      <trkpt lat="42.459" lon="2.09524">
        <ele>1768.6</ele>
        <time>2013-08-17T08:20:31Z</time>
      </trkpt>
      <trkpt lat="42.45897" lon="2.09528">
        <ele>1768.3</ele>
        <time>2013-08-17T08:20:35Z</time>
      </trkpt>
      <trkpt lat="42.45896" lon="2.09534">
        <ele>1768.4</ele>
        <time>2013-08-17T08:20:39Z</time>
      </trkpt>
      <trkpt lat="42.45894" lon="2.09536">
        <ele>1768.4</ele>
        <time>2013-08-17T08:20:41Z</time>
      </trkpt>
      <trkpt lat="42.45891" lon="2.0954">
        <ele>1768.1</ele>
        <time>2013-08-17T08:20:44Z</time>
      </trkpt>
      <trkpt lat="42.45888" lon="2.09543">
        <ele>1768.1</ele>
        <time>2013-08-17T08:20:47Z</time>
      </trkpt>
      <trkpt lat="42.45884" lon="2.09546">
        <ele>1768.6</ele>
        <time>2013-08-17T08:20:50Z</time>
      </trkpt>
      <trkpt lat="42.45883" lon="2.09547">
        <ele>1768.7</ele>
        <time>2013-08-17T08:20:51Z</time>
      </trkpt>
      <trkpt lat="42.45879" lon="2.09556">
        <ele>1769.3</ele>
        <time>2013-08-17T08:20:59Z</time>
      </trkpt>
      <trkpt lat="42.45875" lon="2.09557">
        <ele>1769.5</ele>
        <time>2013-08-17T08:21:05Z</time>
      </trkpt>
      <trkpt lat="42.45872" lon="2.09559">
        <ele>1770.2</ele>
        <time>2013-08-17T08:21:10Z</time>
      </trkpt>
      <trkpt lat="42.45868" lon="2.09563">
        <ele>1770.3</ele>
        <time>2013-08-17T08:21:13Z</time>
      </trkpt>
      <trkpt lat="42.45865" lon="2.09566">
        <ele>1770.8</ele>
        <time>2013-08-17T08:21:17Z</time>
      </trkpt>
      <trkpt lat="42.45863" lon="2.09571">
        <ele>1771.2</ele>
        <time>2013-08-17T08:21:21Z</time>
      </trkpt>
      <trkpt lat="42.4586" lon="2.09576">
        <ele>1772.1</ele>
        <time>2013-08-17T08:21:24Z</time>
      </trkpt>
      <trkpt lat="42.45857" lon="2.09579">
        <ele>1772.6</ele>
        <time>2013-08-17T08:21:28Z</time>
      </trkpt>
      <trkpt lat="42.45853" lon="2.09581">
        <ele>1772.9</ele>
        <time>2013-08-17T08:21:32Z</time>
      </trkpt>
      <trkpt lat="42.4585" lon="2.09585">
        <ele>1773.1</ele>
        <time>2013-08-17T08:21:38Z</time>
      </trkpt>
      <trkpt lat="42.45847" lon="2.09589">
        <ele>1773.5</ele>
        <time>2013-08-17T08:21:42Z</time>
      </trkpt>
      <trkpt lat="42.45844" lon="2.09593">
        <ele>1774.3</ele>
        <time>2013-08-17T08:21:48Z</time>
      </trkpt>
      <trkpt lat="42.45842" lon="2.09597">
        <ele>1775.6</ele>
        <time>2013-08-17T08:21:54Z</time>
      </trkpt>
      <trkpt lat="42.45841" lon="2.09598">
        <ele>1775.6</ele>
        <time>2013-08-17T08:21:55Z</time>
      </trkpt>
      <trkpt lat="42.45836" lon="2.09605">
        <ele>1776.1</ele>
        <time>2013-08-17T08:22:03Z</time>
      </trkpt>
      <trkpt lat="42.45833" lon="2.09609">
        <ele>1776.2</ele>
        <time>2013-08-17T08:22:06Z</time>
      </trkpt>
      <trkpt lat="42.45826" lon="2.09603">
        <ele>1775.4</ele>
        <time>2013-08-17T08:22:17Z</time>
      </trkpt>
      <trkpt lat="42.45827" lon="2.09609">
        <ele>1775.5</ele>
        <time>2013-08-17T08:22:19Z</time>
      </trkpt>
      <trkpt lat="42.45826" lon="2.09614">
        <ele>1776.5</ele>
        <time>2013-08-17T08:22:28Z</time>
      </trkpt>
      <trkpt lat="42.45823" lon="2.09618">
        <ele>1777</ele>
        <time>2013-08-17T08:22:34Z</time>
      </trkpt>
      <trkpt lat="42.45821" lon="2.09622">
        <ele>1777.1</ele>
        <time>2013-08-17T08:22:38Z</time>
      </trkpt>
      <trkpt lat="42.45819" lon="2.09626">
        <ele>1777.8</ele>
        <time>2013-08-17T08:22:42Z</time>
      </trkpt>
      <trkpt lat="42.45816" lon="2.0963">
        <ele>1777.7</ele>
        <time>2013-08-17T08:22:45Z</time>
      </trkpt>
      <trkpt lat="42.45813" lon="2.09634">
        <ele>1778</ele>
        <time>2013-08-17T08:22:48Z</time>
      </trkpt>
      <trkpt lat="42.4581" lon="2.09637">
        <ele>1778.7</ele>
        <time>2013-08-17T08:22:52Z</time>
      </trkpt>
      <trkpt lat="42.45806" lon="2.09641">
        <ele>1778.7</ele>
        <time>2013-08-17T08:22:59Z</time>
      </trkpt>
      <trkpt lat="42.45805" lon="2.09641">
        <ele>1778.8</ele>
        <time>2013-08-17T08:23:00Z</time>
      </trkpt>
      <trkpt lat="42.45799" lon="2.09646">
        <ele>1779.7</ele>
        <time>2013-08-17T08:23:11Z</time>
      </trkpt>
      <trkpt lat="42.45797" lon="2.0965">
        <ele>1779.8</ele>
        <time>2013-08-17T08:23:14Z</time>
      </trkpt>
      <trkpt lat="42.45793" lon="2.09655">
        <ele>1782</ele>
        <time>2013-08-17T08:24:00Z</time>
      </trkpt>
      <trkpt lat="42.45791" lon="2.09654">
        <ele>1782.8</ele>
        <time>2013-08-17T08:24:02Z</time>
      </trkpt>
      <trkpt lat="42.45781" lon="2.09652">
        <ele>1784.3</ele>
        <time>2013-08-17T08:24:12Z</time>
      </trkpt>
      <trkpt lat="42.45778" lon="2.09651">
        <ele>1784.7</ele>
        <time>2013-08-17T08:24:17Z</time>
      </trkpt>
      <trkpt lat="42.45774" lon="2.09648">
        <ele>1785.3</ele>
        <time>2013-08-17T08:24:23Z</time>
      </trkpt>
      <trkpt lat="42.4577" lon="2.0965">
        <ele>1785.6</ele>
        <time>2013-08-17T08:24:29Z</time>
      </trkpt>
      <trkpt lat="42.45767" lon="2.09651">
        <ele>1786.2</ele>
        <time>2013-08-17T08:24:32Z</time>
      </trkpt>
      <trkpt lat="42.45763" lon="2.09653">
        <ele>1786.4</ele>
        <time>2013-08-17T08:24:37Z</time>
      </trkpt>
      <trkpt lat="42.45758" lon="2.09656">
        <ele>1787</ele>
        <time>2013-08-17T08:24:42Z</time>
      </trkpt>
      <trkpt lat="42.45756" lon="2.09658">
        <ele>1787.9</ele>
        <time>2013-08-17T08:24:46Z</time>
      </trkpt>
      <trkpt lat="42.45753" lon="2.09661">
        <ele>1787.9</ele>
        <time>2013-08-17T08:24:49Z</time>
      </trkpt>
      <trkpt lat="42.4575" lon="2.09665">
        <ele>1788.5</ele>
        <time>2013-08-17T08:24:53Z</time>
      </trkpt>
      <trkpt lat="42.45747" lon="2.09668">
        <ele>1789.4</ele>
        <time>2013-08-17T08:25:00Z</time>
      </trkpt>
      <trkpt lat="42.45745" lon="2.09671">
        <ele>1789.5</ele>
        <time>2013-08-17T08:25:03Z</time>
      </trkpt>
      <trkpt lat="42.45743" lon="2.09673">
        <ele>1789.5</ele>
        <time>2013-08-17T08:25:04Z</time>
      </trkpt>
      <trkpt lat="42.45739" lon="2.09678">
        <ele>1790.2</ele>
        <time>2013-08-17T08:25:08Z</time>
      </trkpt>
      <trkpt lat="42.45737" lon="2.09682">
        <ele>1790.5</ele>
        <time>2013-08-17T08:25:10Z</time>
      </trkpt>
      <trkpt lat="42.45734" lon="2.09685">
        <ele>1790.2</ele>
        <time>2013-08-17T08:25:12Z</time>
      </trkpt>
      <trkpt lat="42.45731" lon="2.09688">
        <ele>1789.8</ele>
        <time>2013-08-17T08:25:14Z</time>
      </trkpt>
      <trkpt lat="42.45729" lon="2.09691">
        <ele>1790.3</ele>
        <time>2013-08-17T08:25:16Z</time>
      </trkpt>
      <trkpt lat="42.45726" lon="2.09696">
        <ele>1790.8</ele>
        <time>2013-08-17T08:25:19Z</time>
      </trkpt>
      <trkpt lat="42.45725" lon="2.09701">
        <ele>1791.1</ele>
        <time>2013-08-17T08:25:22Z</time>
      </trkpt>
      <trkpt lat="42.45722" lon="2.09706">
        <ele>1790.2</ele>
        <time>2013-08-17T08:25:26Z</time>
      </trkpt>
      <trkpt lat="42.45721" lon="2.09711">
        <ele>1791.5</ele>
        <time>2013-08-17T08:25:30Z</time>
      </trkpt>
      <trkpt lat="42.45719" lon="2.09716">
        <ele>1791.5</ele>
        <time>2013-08-17T08:25:34Z</time>
      </trkpt>
      <trkpt lat="42.45719" lon="2.09721">
        <ele>1791.5</ele>
        <time>2013-08-17T08:25:40Z</time>
      </trkpt>
      <trkpt lat="42.45719" lon="2.09727">
        <ele>1790.6</ele>
        <time>2013-08-17T08:25:45Z</time>
      </trkpt>
      <trkpt lat="42.45719" lon="2.09732">
        <ele>1790.3</ele>
        <time>2013-08-17T08:25:48Z</time>
      </trkpt>
      <trkpt lat="42.45718" lon="2.09738">
        <ele>1789.5</ele>
        <time>2013-08-17T08:25:54Z</time>
      </trkpt>
      <trkpt lat="42.45718" lon="2.09744">
        <ele>1788.1</ele>
        <time>2013-08-17T08:26:04Z</time>
      </trkpt>
      <trkpt lat="42.45718" lon="2.09745">
        <ele>1788.1</ele>
        <time>2013-08-17T08:26:05Z</time>
      </trkpt>
      <trkpt lat="42.45724" lon="2.09751">
        <ele>1787.6</ele>
        <time>2013-08-17T08:27:04Z</time>
      </trkpt>
      <trkpt lat="42.4572" lon="2.09752">
        <ele>1787.7</ele>
        <time>2013-08-17T08:27:56Z</time>
      </trkpt>
      <trkpt lat="42.45719" lon="2.09752">
        <ele>1787.7</ele>
        <time>2013-08-17T08:27:57Z</time>
      </trkpt>
      <trkpt lat="42.45714" lon="2.0976">
        <ele>1789.7</ele>
        <time>2013-08-17T08:28:13Z</time>
      </trkpt>
      <trkpt lat="42.45712" lon="2.09765">
        <ele>1790</ele>
        <time>2013-08-17T08:28:21Z</time>
      </trkpt>
      <trkpt lat="42.45708" lon="2.09764">
        <ele>1791.7</ele>
        <time>2013-08-17T08:28:33Z</time>
      </trkpt>
      <trkpt lat="42.45705" lon="2.09761">
        <ele>1792.4</ele>
        <time>2013-08-17T08:28:38Z</time>
      </trkpt>
      <trkpt lat="42.45702" lon="2.09757">
        <ele>1792.8</ele>
        <time>2013-08-17T08:28:42Z</time>
      </trkpt>
      <trkpt lat="42.457" lon="2.09752">
        <ele>1793.8</ele>
        <time>2013-08-17T08:28:49Z</time>
      </trkpt>
      <trkpt lat="42.45696" lon="2.09749">
        <ele>1795.9</ele>
        <time>2013-08-17T08:29:00Z</time>
      </trkpt>
      <trkpt lat="42.45695" lon="2.09749">
        <ele>1796.3</ele>
        <time>2013-08-17T08:29:01Z</time>
      </trkpt>
      <trkpt lat="42.45689" lon="2.09756">
        <ele>1797.3</ele>
        <time>2013-08-17T08:29:11Z</time>
      </trkpt>
      <trkpt lat="42.45686" lon="2.09759">
        <ele>1797.7</ele>
        <time>2013-08-17T08:29:15Z</time>
      </trkpt>
      <trkpt lat="42.45683" lon="2.0976">
        <ele>1798.4</ele>
        <time>2013-08-17T08:29:18Z</time>
      </trkpt>
      <trkpt lat="42.45679" lon="2.09762">
        <ele>1798.7</ele>
        <time>2013-08-17T08:29:20Z</time>
      </trkpt>
      <trkpt lat="42.45676" lon="2.09764">
        <ele>1798.7</ele>
        <time>2013-08-17T08:29:26Z</time>
      </trkpt>
      <trkpt lat="42.45674" lon="2.09769">
        <ele>1798.8</ele>
        <time>2013-08-17T08:29:29Z</time>
      </trkpt>
      <trkpt lat="42.45673" lon="2.09775">
        <ele>1799.5</ele>
        <time>2013-08-17T08:29:32Z</time>
      </trkpt>
      <trkpt lat="42.45672" lon="2.0978">
        <ele>1799.9</ele>
        <time>2013-08-17T08:29:35Z</time>
      </trkpt>
      <trkpt lat="42.45672" lon="2.09786">
        <ele>1799.8</ele>
        <time>2013-08-17T08:29:38Z</time>
      </trkpt>
      <trkpt lat="42.45673" lon="2.09791">
        <ele>1800.4</ele>
        <time>2013-08-17T08:29:45Z</time>
      </trkpt>
      <trkpt lat="42.45673" lon="2.09796">
        <ele>1800.4</ele>
        <time>2013-08-17T08:29:50Z</time>
      </trkpt>
      <trkpt lat="42.45674" lon="2.09802">
        <ele>1800.4</ele>
        <time>2013-08-17T08:29:54Z</time>
      </trkpt>
      <trkpt lat="42.45673" lon="2.09808">
        <ele>1801.2</ele>
        <time>2013-08-17T08:30:00Z</time>
      </trkpt>
      <trkpt lat="42.4567" lon="2.09809">
        <ele>1802.1</ele>
        <time>2013-08-17T08:30:12Z</time>
      </trkpt>
      <trkpt lat="42.45669" lon="2.09809">
        <ele>1802</ele>
        <time>2013-08-17T08:30:13Z</time>
      </trkpt>
      <trkpt lat="42.4566" lon="2.09814">
        <ele>1802</ele>
        <time>2013-08-17T08:30:27Z</time>
      </trkpt>
      <trkpt lat="42.45656" lon="2.09818">
        <ele>1803</ele>
        <time>2013-08-17T08:30:31Z</time>
      </trkpt>
      <trkpt lat="42.45653" lon="2.09824">
        <ele>1804.1</ele>
        <time>2013-08-17T08:30:37Z</time>
      </trkpt>
      <trkpt lat="42.45652" lon="2.0983">
        <ele>1805</ele>
        <time>2013-08-17T08:30:44Z</time>
      </trkpt>
      <trkpt lat="42.4565" lon="2.09835">
        <ele>1805.4</ele>
        <time>2013-08-17T08:30:50Z</time>
      </trkpt>
      <trkpt lat="42.45648" lon="2.09843">
        <ele>1806</ele>
        <time>2013-08-17T08:31:13Z</time>
      </trkpt>
      <trkpt lat="42.45648" lon="2.09845">
        <ele>1807.2</ele>
        <time>2013-08-17T08:31:15Z</time>
      </trkpt>
      <trkpt lat="42.45642" lon="2.09856">
        <ele>1807</ele>
        <time>2013-08-17T08:31:29Z</time>
      </trkpt>
      <trkpt lat="42.45639" lon="2.09862">
        <ele>1807</ele>
        <time>2013-08-17T08:31:45Z</time>
      </trkpt>
      <trkpt lat="42.45635" lon="2.09868">
        <ele>1808</ele>
        <time>2013-08-17T08:31:53Z</time>
      </trkpt>
      <trkpt lat="42.4563" lon="2.09874">
        <ele>1809</ele>
        <time>2013-08-17T08:32:01Z</time>
      </trkpt>
      <trkpt lat="42.45626" lon="2.0988">
        <ele>1809</ele>
        <time>2013-08-17T08:32:09Z</time>
      </trkpt>
      <trkpt lat="42.45622" lon="2.09886">
        <ele>1810</ele>
        <time>2013-08-17T08:32:17Z</time>
      </trkpt>
      <trkpt lat="42.45621" lon="2.09887">
        <ele>1810.2</ele>
        <time>2013-08-17T08:32:19Z</time>
      </trkpt>
      <trkpt lat="42.45612" lon="2.09896">
        <ele>1811</ele>
        <time>2013-08-17T08:32:33Z</time>
      </trkpt>
      <trkpt lat="42.45607" lon="2.09901">
        <ele>1813</ele>
        <time>2013-08-17T08:32:41Z</time>
      </trkpt>
      <trkpt lat="42.45602" lon="2.099">
        <ele>1814</ele>
        <time>2013-08-17T08:32:57Z</time>
      </trkpt>
      <trkpt lat="42.45598" lon="2.09905">
        <ele>1815</ele>
        <time>2013-08-17T08:33:05Z</time>
      </trkpt>
      <trkpt lat="42.45591" lon="2.0991">
        <ele>1815</ele>
        <time>2013-08-17T08:33:09Z</time>
      </trkpt>
      <trkpt lat="42.45585" lon="2.09915">
        <ele>1815</ele>
        <time>2013-08-17T08:33:13Z</time>
      </trkpt>
      <trkpt lat="42.4558" lon="2.09919">
        <ele>1815</ele>
        <time>2013-08-17T08:33:17Z</time>
      </trkpt>
      <trkpt lat="42.45576" lon="2.09927">
        <ele>1816</ele>
        <time>2013-08-17T08:33:21Z</time>
      </trkpt>
      <trkpt lat="42.45575" lon="2.0993">
        <ele>1817.2</ele>
        <time>2013-08-17T08:33:23Z</time>
      </trkpt>
      <trkpt lat="42.45572" lon="2.09941">
        <ele>1818</ele>
        <time>2013-08-17T08:33:35Z</time>
      </trkpt>
      <trkpt lat="42.45568" lon="2.09946">
        <ele>1819</ele>
        <time>2013-08-17T08:33:41Z</time>
      </trkpt>
      <trkpt lat="42.45561" lon="2.09947">
        <ele>1820</ele>
        <time>2013-08-17T08:33:49Z</time>
      </trkpt>
      <trkpt lat="42.45556" lon="2.09956">
        <ele>1820</ele>
        <time>2013-08-17T08:33:57Z</time>
      </trkpt>
      <trkpt lat="42.45553" lon="2.09961">
        <ele>1821</ele>
        <time>2013-08-17T08:34:01Z</time>
      </trkpt>
      <trkpt lat="42.45551" lon="2.09967">
        <ele>1821</ele>
        <time>2013-08-17T08:34:05Z</time>
      </trkpt>
      <trkpt lat="42.45543" lon="2.09976">
        <ele>1822</ele>
        <time>2013-08-17T08:34:14Z</time>
      </trkpt>
      <trkpt lat="42.45538" lon="2.09983">
        <ele>1824</ele>
        <time>2013-08-17T08:34:24Z</time>
      </trkpt>
      <trkpt lat="42.45538" lon="2.09985">
        <ele>1824.7</ele>
        <time>2013-08-17T08:34:26Z</time>
      </trkpt>
      <trkpt lat="42.45529" lon="2.09992">
        <ele>1827</ele>
        <time>2013-08-17T08:34:40Z</time>
      </trkpt>
      <trkpt lat="42.45524" lon="2.09992">
        <ele>1828</ele>
        <time>2013-08-17T08:34:48Z</time>
      </trkpt>
      <trkpt lat="42.45519" lon="2.10001">
        <ele>1828</ele>
        <time>2013-08-17T08:34:56Z</time>
      </trkpt>
      <trkpt lat="42.45517" lon="2.10009">
        <ele>1829</ele>
        <time>2013-08-17T08:35:04Z</time>
      </trkpt>
      <trkpt lat="42.45516" lon="2.10016">
        <ele>1830</ele>
        <time>2013-08-17T08:35:33Z</time>
      </trkpt>
      <trkpt lat="42.45516" lon="2.10018">
        <ele>1830.8</ele>
        <time>2013-08-17T08:35:35Z</time>
      </trkpt>
      <trkpt lat="42.45515" lon="2.1003">
        <ele>1831.3</ele>
        <time>2013-08-17T08:35:47Z</time>
      </trkpt>
      <trkpt lat="42.45516" lon="2.10035">
        <ele>1832.3</ele>
        <time>2013-08-17T08:35:51Z</time>
      </trkpt>
      <trkpt lat="42.45519" lon="2.1004">
        <ele>1832.5</ele>
        <time>2013-08-17T08:35:55Z</time>
      </trkpt>
      <trkpt lat="42.45514" lon="2.10043">
        <ele>1832.8</ele>
        <time>2013-08-17T08:36:34Z</time>
      </trkpt>
      <trkpt lat="42.45518" lon="2.10046">
        <ele>1833.3</ele>
        <time>2013-08-17T08:37:13Z</time>
      </trkpt>
      <trkpt lat="42.45519" lon="2.10046">
        <ele>1833.5</ele>
        <time>2013-08-17T08:37:14Z</time>
      </trkpt>
      <trkpt lat="42.45527" lon="2.1005">
        <ele>1833</ele>
        <time>2013-08-17T08:37:21Z</time>
      </trkpt>
      <trkpt lat="42.45523" lon="2.10047">
        <ele>1832</ele>
        <time>2013-08-17T08:37:41Z</time>
      </trkpt>
      <trkpt lat="42.45517" lon="2.10046">
        <ele>1832</ele>
        <time>2013-08-17T08:37:51Z</time>
      </trkpt>
      <trkpt lat="42.45516" lon="2.10053">
        <ele>1832</ele>
        <time>2013-08-17T08:37:59Z</time>
      </trkpt>
      <trkpt lat="42.45519" lon="2.10061">
        <ele>1833</ele>
        <time>2013-08-17T08:38:05Z</time>
      </trkpt>
      <trkpt lat="42.45524" lon="2.10068">
        <ele>1833</ele>
        <time>2013-08-17T08:38:09Z</time>
      </trkpt>
      <trkpt lat="42.45518" lon="2.10063">
        <ele>1833</ele>
        <time>2013-08-17T08:38:25Z</time>
      </trkpt>
      <trkpt lat="42.45517" lon="2.10062">
        <ele>1833.1</ele>
        <time>2013-08-17T08:38:27Z</time>
      </trkpt>
      <trkpt lat="42.45515" lon="2.10048">
        <ele>1833</ele>
        <time>2013-08-17T08:38:47Z</time>
      </trkpt>
      <trkpt lat="42.45513" lon="2.10056">
        <ele>1833</ele>
        <time>2013-08-17T08:39:03Z</time>
      </trkpt>
      <trkpt lat="42.45508" lon="2.10057">
        <ele>1833</ele>
        <time>2013-08-17T08:39:19Z</time>
      </trkpt>
      <trkpt lat="42.45502" lon="2.10058">
        <ele>1833</ele>
        <time>2013-08-17T08:39:35Z</time>
      </trkpt>
      <trkpt lat="42.45502" lon="2.10058">
        <ele>1833.7</ele>
        <time>2013-08-17T08:39:37Z</time>
      </trkpt>
      <trkpt lat="42.45517" lon="2.10049">
        <ele>1833</ele>
        <time>2013-08-17T08:40:27Z</time>
      </trkpt>
      <trkpt lat="42.45521" lon="2.10048">
        <ele>1832</ele>
        <time>2013-08-17T08:40:39Z</time>
      </trkpt>
      <trkpt lat="42.45521" lon="2.10048">
        <ele>1832.5</ele>
        <time>2013-08-17T08:40:41Z</time>
      </trkpt>
      <trkpt lat="42.45514" lon="2.10056">
        <ele>1833</ele>
        <time>2013-08-17T08:40:49Z</time>
      </trkpt>
      <trkpt lat="42.45511" lon="2.1006">
        <ele>1833</ele>
        <time>2013-08-17T08:40:53Z</time>
      </trkpt>
      <trkpt lat="42.45507" lon="2.10065">
        <ele>1833</ele>
        <time>2013-08-17T08:40:57Z</time>
      </trkpt>
      <trkpt lat="42.45503" lon="2.1007">
        <ele>1833</ele>
        <time>2013-08-17T08:41:01Z</time>
      </trkpt>
      <trkpt lat="42.45499" lon="2.10075">
        <ele>1833</ele>
        <time>2013-08-17T08:41:05Z</time>
      </trkpt>
      <trkpt lat="42.45494" lon="2.10077">
        <ele>1834</ele>
        <time>2013-08-17T08:41:09Z</time>
      </trkpt>
      <trkpt lat="42.4549" lon="2.10081">
        <ele>1835</ele>
        <time>2013-08-17T08:41:13Z</time>
      </trkpt>
      <trkpt lat="42.45484" lon="2.10085">
        <ele>1834</ele>
        <time>2013-08-17T08:41:17Z</time>
      </trkpt>
      <trkpt lat="42.45479" lon="2.10089">
        <ele>1835</ele>
        <time>2013-08-17T08:41:21Z</time>
      </trkpt>
      <trkpt lat="42.45474" lon="2.10094">
        <ele>1834</ele>
        <time>2013-08-17T08:41:25Z</time>
      </trkpt>
      <trkpt lat="42.45471" lon="2.101">
        <ele>1834</ele>
        <time>2013-08-17T08:41:29Z</time>
      </trkpt>
      <trkpt lat="42.45473" lon="2.10109">
        <ele>1835</ele>
        <time>2013-08-17T08:41:39Z</time>
      </trkpt>
      <trkpt lat="42.45476" lon="2.10112">
        <ele>1836.1</ele>
        <time>2013-08-17T08:41:43Z</time>
      </trkpt>
      <trkpt lat="42.45479" lon="2.10121">
        <ele>1835</ele>
        <time>2013-08-17T08:41:54Z</time>
      </trkpt>
      <trkpt lat="42.45482" lon="2.10127">
        <ele>1837</ele>
        <time>2013-08-17T08:42:06Z</time>
      </trkpt>
      <trkpt lat="42.45481" lon="2.10118">
        <ele>1837</ele>
        <time>2013-08-17T08:42:34Z</time>
      </trkpt>
      <trkpt lat="42.45476" lon="2.10113">
        <ele>1837</ele>
        <time>2013-08-17T08:42:38Z</time>
      </trkpt>
      <trkpt lat="42.45476" lon="2.10119">
        <ele>1837</ele>
        <time>2013-08-17T08:42:54Z</time>
      </trkpt>
      <trkpt lat="42.45475" lon="2.1012">
        <ele>1837.6</ele>
        <time>2013-08-17T08:42:56Z</time>
      </trkpt>
      <trkpt lat="42.45469" lon="2.10121">
        <ele>1837.4</ele>
        <time>2013-08-17T08:43:31Z</time>
      </trkpt>
      <trkpt lat="42.4547" lon="2.10115">
        <ele>1837</ele>
        <time>2013-08-17T08:43:42Z</time>
      </trkpt>
      <trkpt lat="42.45473" lon="2.1011">
        <ele>1837</ele>
        <time>2013-08-17T08:43:50Z</time>
      </trkpt>
      <trkpt lat="42.45469" lon="2.10102">
        <ele>1839</ele>
        <time>2013-08-17T08:44:22Z</time>
      </trkpt>
      <trkpt lat="42.45468" lon="2.10102">
        <ele>1839.3</ele>
        <time>2013-08-17T08:44:24Z</time>
      </trkpt>
      <trkpt lat="42.4546" lon="2.10111">
        <ele>1841</ele>
        <time>2013-08-17T08:44:34Z</time>
      </trkpt>
      <trkpt lat="42.45456" lon="2.10115">
        <ele>1841</ele>
        <time>2013-08-17T08:44:38Z</time>
      </trkpt>
      <trkpt lat="42.45453" lon="2.10122">
        <ele>1840</ele>
        <time>2013-08-17T08:44:42Z</time>
      </trkpt>
      <trkpt lat="42.45449" lon="2.10127">
        <ele>1840</ele>
        <time>2013-08-17T08:44:46Z</time>
      </trkpt>
      <trkpt lat="42.45445" lon="2.10131">
        <ele>1840</ele>
        <time>2013-08-17T08:44:50Z</time>
      </trkpt>
      <trkpt lat="42.45441" lon="2.10134">
        <ele>1840</ele>
        <time>2013-08-17T08:44:54Z</time>
      </trkpt>
      <trkpt lat="42.45435" lon="2.10141">
        <ele>1840</ele>
        <time>2013-08-17T08:45:02Z</time>
      </trkpt>
      <trkpt lat="42.45429" lon="2.10148">
        <ele>1841</ele>
        <time>2013-08-17T08:45:10Z</time>
      </trkpt>
      <trkpt lat="42.45427" lon="2.10154">
        <ele>1841</ele>
        <time>2013-08-17T08:45:18Z</time>
      </trkpt>
      <trkpt lat="42.45424" lon="2.1016">
        <ele>1842</ele>
        <time>2013-08-17T08:45:26Z</time>
      </trkpt>
      <trkpt lat="42.45422" lon="2.10161">
        <ele>1842.7</ele>
        <time>2013-08-17T08:45:28Z</time>
      </trkpt>
      <trkpt lat="42.45411" lon="2.10166">
        <ele>1845</ele>
        <time>2013-08-17T08:45:42Z</time>
      </trkpt>
      <trkpt lat="42.45405" lon="2.10172">
        <ele>1847</ele>
        <time>2013-08-17T08:45:50Z</time>
      </trkpt>
      <trkpt lat="42.45399" lon="2.10178">
        <ele>1847</ele>
        <time>2013-08-17T08:45:58Z</time>
      </trkpt>
      <trkpt lat="42.45395" lon="2.10184">
        <ele>1848</ele>
        <time>2013-08-17T08:46:02Z</time>
      </trkpt>
      <trkpt lat="42.45391" lon="2.10188">
        <ele>1848</ele>
        <time>2013-08-17T08:46:06Z</time>
      </trkpt>
      <trkpt lat="42.45389" lon="2.10198">
        <ele>1847</ele>
        <time>2013-08-17T08:46:14Z</time>
      </trkpt>
      <trkpt lat="42.45385" lon="2.10203">
        <ele>1847</ele>
        <time>2013-08-17T08:46:18Z</time>
      </trkpt>
      <trkpt lat="42.45381" lon="2.1021">
        <ele>1848</ele>
        <time>2013-08-17T08:46:26Z</time>
      </trkpt>
      <trkpt lat="42.45377" lon="2.10217">
        <ele>1849</ele>
        <time>2013-08-17T08:46:34Z</time>
      </trkpt>
      <trkpt lat="42.45377" lon="2.10218">
        <ele>1850.5</ele>
        <time>2013-08-17T08:46:36Z</time>
      </trkpt>
      <trkpt lat="42.45369" lon="2.10224">
        <ele>1851</ele>
        <time>2013-08-17T08:46:50Z</time>
      </trkpt>
      <trkpt lat="42.45364" lon="2.10231">
        <ele>1852</ele>
        <time>2013-08-17T08:46:58Z</time>
      </trkpt>
      <trkpt lat="42.4536" lon="2.10235">
        <ele>1853</ele>
        <time>2013-08-17T08:47:06Z</time>
      </trkpt>
      <trkpt lat="42.45355" lon="2.10243">
        <ele>1853</ele>
        <time>2013-08-17T08:47:14Z</time>
      </trkpt>
      <trkpt lat="42.45353" lon="2.10251">
        <ele>1855</ele>
        <time>2013-08-17T08:47:22Z</time>
      </trkpt>
      <trkpt lat="42.4535" lon="2.10257">
        <ele>1855</ele>
        <time>2013-08-17T08:47:30Z</time>
      </trkpt>
      <trkpt lat="42.45344" lon="2.10262">
        <ele>1857</ele>
        <time>2013-08-17T08:47:42Z</time>
      </trkpt>
      <trkpt lat="42.45343" lon="2.10263">
        <ele>1858</ele>
        <time>2013-08-17T08:47:44Z</time>
      </trkpt>
      <trkpt lat="42.45335" lon="2.10274">
        <ele>1858</ele>
        <time>2013-08-17T08:47:58Z</time>
      </trkpt>
      <trkpt lat="42.45333" lon="2.10283">
        <ele>1859</ele>
        <time>2013-08-17T08:48:06Z</time>
      </trkpt>
      <trkpt lat="42.45329" lon="2.10286">
        <ele>1859</ele>
        <time>2013-08-17T08:48:10Z</time>
      </trkpt>
      <trkpt lat="42.45325" lon="2.10291">
        <ele>1861</ele>
        <time>2013-08-17T08:48:22Z</time>
      </trkpt>
      <trkpt lat="42.4532" lon="2.10292">
        <ele>1862</ele>
        <time>2013-08-17T08:48:30Z</time>
      </trkpt>
      <trkpt lat="42.45314" lon="2.10296">
        <ele>1862</ele>
        <time>2013-08-17T08:48:38Z</time>
      </trkpt>
      <trkpt lat="42.45317" lon="2.10304">
        <ele>1863</ele>
        <time>2013-08-17T08:48:46Z</time>
      </trkpt>
      <trkpt lat="42.45319" lon="2.10306">
        <ele>1864</ele>
        <time>2013-08-17T08:48:49Z</time>
      </trkpt>
      <trkpt lat="42.45335" lon="2.10319">
        <ele>1863</ele>
        <time>2013-08-17T08:48:59Z</time>
      </trkpt>
      <trkpt lat="42.45338" lon="2.10326">
        <ele>1863</ele>
        <time>2013-08-17T08:49:12Z</time>
      </trkpt>
      <trkpt lat="42.45342" lon="2.10329">
        <ele>1863</ele>
        <time>2013-08-17T08:49:26Z</time>
      </trkpt>
      <trkpt lat="42.45346" lon="2.10335">
        <ele>1863</ele>
        <time>2013-08-17T08:49:30Z</time>
      </trkpt>
      <trkpt lat="42.45347" lon="2.10341">
        <ele>1863</ele>
        <time>2013-08-17T08:49:34Z</time>
      </trkpt>
      <trkpt lat="42.45339" lon="2.10343">
        <ele>1864</ele>
        <time>2013-08-17T08:49:42Z</time>
      </trkpt>
      <trkpt lat="42.45329" lon="2.10342">
        <ele>1865</ele>
        <time>2013-08-17T08:49:50Z</time>
      </trkpt>
      <trkpt lat="42.45326" lon="2.10341">
        <ele>1865.8</ele>
        <time>2013-08-17T08:49:52Z</time>
      </trkpt>
      <trkpt lat="42.45317" lon="2.10341">
        <ele>1866</ele>
        <time>2013-08-17T08:49:58Z</time>
      </trkpt>
      <trkpt lat="42.45311" lon="2.10341">
        <ele>1866</ele>
        <time>2013-08-17T08:50:02Z</time>
      </trkpt>
      <trkpt lat="42.45305" lon="2.10342">
        <ele>1866</ele>
        <time>2013-08-17T08:50:06Z</time>
      </trkpt>
      <trkpt lat="42.45297" lon="2.10342">
        <ele>1868</ele>
        <time>2013-08-17T08:50:14Z</time>
      </trkpt>
      <trkpt lat="42.45289" lon="2.10342">
        <ele>1868</ele>
        <time>2013-08-17T08:50:22Z</time>
      </trkpt>
      <trkpt lat="42.4528" lon="2.10345">
        <ele>1869</ele>
        <time>2013-08-17T08:50:30Z</time>
      </trkpt>
      <trkpt lat="42.45276" lon="2.10347">
        <ele>1870</ele>
        <time>2013-08-17T08:50:34Z</time>
      </trkpt>
      <trkpt lat="42.4527" lon="2.10353">
        <ele>1870</ele>
        <time>2013-08-17T08:50:42Z</time>
      </trkpt>
      <trkpt lat="42.45265" lon="2.10359">
        <ele>1871</ele>
        <time>2013-08-17T08:50:50Z</time>
      </trkpt>
      <trkpt lat="42.45258" lon="2.10364">
        <ele>1873</ele>
        <time>2013-08-17T08:50:58Z</time>
      </trkpt>
      <trkpt lat="42.45258" lon="2.10364">
        <ele>1873.3</ele>
        <time>2013-08-17T08:51:00Z</time>
      </trkpt>
      <trkpt lat="42.45255" lon="2.10378">
        <ele>1873</ele>
        <time>2013-08-17T08:51:14Z</time>
      </trkpt>
      <trkpt lat="42.45251" lon="2.10383">
        <ele>1874</ele>
        <time>2013-08-17T08:51:22Z</time>
      </trkpt>
      <trkpt lat="42.45244" lon="2.10387">
        <ele>1875</ele>
        <time>2013-08-17T08:51:30Z</time>
      </trkpt>
      <trkpt lat="42.45241" lon="2.10393">
        <ele>1874</ele>
        <time>2013-08-17T08:51:38Z</time>
      </trkpt>
      <trkpt lat="42.45241" lon="2.104">
        <ele>1875</ele>
        <time>2013-08-17T08:51:46Z</time>
      </trkpt>
      <trkpt lat="42.45239" lon="2.1041">
        <ele>1876</ele>
        <time>2013-08-17T08:51:58Z</time>
      </trkpt>
      <trkpt lat="42.45236" lon="2.10417">
        <ele>1876</ele>
        <time>2013-08-17T08:52:06Z</time>
      </trkpt>
      <trkpt lat="42.45236" lon="2.10418">
        <ele>1877.2</ele>
        <time>2013-08-17T08:52:08Z</time>
      </trkpt>
      <trkpt lat="42.4524" lon="2.10432">
        <ele>1877</ele>
        <time>2013-08-17T08:52:53Z</time>
      </trkpt>
      <trkpt lat="42.45238" lon="2.10438">
        <ele>1877</ele>
        <time>2013-08-17T08:53:05Z</time>
      </trkpt>
      <trkpt lat="42.4524" lon="2.10445">
        <ele>1877</ele>
        <time>2013-08-17T08:53:13Z</time>
      </trkpt>
      <trkpt lat="42.4524" lon="2.10446">
        <ele>1878</ele>
        <time>2013-08-17T08:53:15Z</time>
      </trkpt>
      <trkpt lat="42.45238" lon="2.10453">
        <ele>1880</ele>
        <time>2013-08-17T08:54:42Z</time>
      </trkpt>
      <trkpt lat="42.45238" lon="2.10453">
        <ele>1880.3</ele>
        <time>2013-08-17T08:54:44Z</time>
      </trkpt>
      <trkpt lat="42.45238" lon="2.10441">
        <ele>1879</ele>
        <time>2013-08-17T08:55:30Z</time>
      </trkpt>
      <trkpt lat="42.45238" lon="2.10448">
        <ele>1879</ele>
        <time>2013-08-17T08:55:47Z</time>
      </trkpt>
      <trkpt lat="42.45238" lon="2.10449">
        <ele>1880</ele>
        <time>2013-08-17T08:55:49Z</time>
      </trkpt>
      <trkpt lat="42.45233" lon="2.10461">
        <ele>1880</ele>
        <time>2013-08-17T08:56:23Z</time>
      </trkpt>
      <trkpt lat="42.45234" lon="2.10468">
        <ele>1881</ele>
        <time>2013-08-17T08:56:40Z</time>
      </trkpt>
      <trkpt lat="42.45237" lon="2.10463">
        <ele>1880</ele>
        <time>2013-08-17T08:57:14Z</time>
      </trkpt>
      <trkpt lat="42.45238" lon="2.10464">
        <ele>1880.3</ele>
        <time>2013-08-17T08:57:16Z</time>
      </trkpt>
      <trkpt lat="42.45238" lon="2.10461">
        <ele>1880</ele>
        <time>2013-08-17T08:57:49Z</time>
      </trkpt>
      <trkpt lat="42.45231" lon="2.10465">
        <ele>1880</ele>
        <time>2013-08-17T08:58:53Z</time>
      </trkpt>
      <trkpt lat="42.4523" lon="2.10466">
        <ele>1880.9</ele>
        <time>2013-08-17T08:58:55Z</time>
      </trkpt>
      <trkpt lat="42.45233" lon="2.10463">
        <ele>1881</ele>
        <time>2013-08-17T09:00:08Z</time>
      </trkpt>
      <trkpt lat="42.45233" lon="2.10462">
        <ele>1881.3</ele>
        <time>2013-08-17T09:00:10Z</time>
      </trkpt>
      <trkpt lat="42.45219" lon="2.10468">
        <ele>1882</ele>
        <time>2013-08-17T09:00:28Z</time>
      </trkpt>
      <trkpt lat="42.45215" lon="2.10474">
        <ele>1882</ele>
        <time>2013-08-17T09:00:36Z</time>
      </trkpt>
      <trkpt lat="42.45209" lon="2.10481">
        <ele>1884</ele>
        <time>2013-08-17T09:00:44Z</time>
      </trkpt>
      <trkpt lat="42.45203" lon="2.10486">
        <ele>1884</ele>
        <time>2013-08-17T09:00:52Z</time>
      </trkpt>
      <trkpt lat="42.45199" lon="2.10495">
        <ele>1885</ele>
        <time>2013-08-17T09:01:00Z</time>
      </trkpt>
      <trkpt lat="42.45194" lon="2.10502">
        <ele>1885</ele>
        <time>2013-08-17T09:01:08Z</time>
      </trkpt>
      <trkpt lat="42.45186" lon="2.10508">
        <ele>1888</ele>
        <time>2013-08-17T09:01:16Z</time>
      </trkpt>
      <trkpt lat="42.45186" lon="2.1051">
        <ele>1888.4</ele>
        <time>2013-08-17T09:01:18Z</time>
      </trkpt>
      <trkpt lat="42.45175" lon="2.10517">
        <ele>1890</ele>
        <time>2013-08-17T09:01:34Z</time>
      </trkpt>
      <trkpt lat="42.45171" lon="2.1052">
        <ele>1890</ele>
        <time>2013-08-17T09:01:42Z</time>
      </trkpt>
      <trkpt lat="42.45166" lon="2.10526">
        <ele>1891</ele>
        <time>2013-08-17T09:01:52Z</time>
      </trkpt>
      <trkpt lat="42.45163" lon="2.10532">
        <ele>1893</ele>
        <time>2013-08-17T09:02:02Z</time>
      </trkpt>
      <trkpt lat="42.45158" lon="2.10536">
        <ele>1894</ele>
        <time>2013-08-17T09:02:12Z</time>
      </trkpt>
      <trkpt lat="42.45153" lon="2.1054">
        <ele>1895</ele>
        <time>2013-08-17T09:02:21Z</time>
      </trkpt>
      <trkpt lat="42.45153" lon="2.1054">
        <ele>1895.3</ele>
        <time>2013-08-17T09:02:23Z</time>
      </trkpt>
      <trkpt lat="42.45145" lon="2.10548">
        <ele>1897</ele>
        <time>2013-08-17T09:02:41Z</time>
      </trkpt>
      <trkpt lat="42.45143" lon="2.10553">
        <ele>1898</ele>
        <time>2013-08-17T09:02:49Z</time>
      </trkpt>
      <trkpt lat="42.45138" lon="2.10557">
        <ele>1899</ele>
        <time>2013-08-17T09:03:01Z</time>
      </trkpt>
      <trkpt lat="42.45134" lon="2.1056">
        <ele>1900</ele>
        <time>2013-08-17T09:03:13Z</time>
      </trkpt>
      <trkpt lat="42.45129" lon="2.10566">
        <ele>1901</ele>
        <time>2013-08-17T09:03:21Z</time>
      </trkpt>
      <trkpt lat="42.45124" lon="2.10571">
        <ele>1901</ele>
        <time>2013-08-17T09:03:29Z</time>
      </trkpt>
      <trkpt lat="42.45123" lon="2.10572">
        <ele>1901.8</ele>
        <time>2013-08-17T09:03:31Z</time>
      </trkpt>
      <trkpt lat="42.45116" lon="2.10585">
        <ele>1902</ele>
        <time>2013-08-17T09:03:45Z</time>
      </trkpt>
      <trkpt lat="42.45111" lon="2.10591">
        <ele>1903</ele>
        <time>2013-08-17T09:03:53Z</time>
      </trkpt>
      <trkpt lat="42.45107" lon="2.10598">
        <ele>1904</ele>
        <time>2013-08-17T09:04:01Z</time>
      </trkpt>
      <trkpt lat="42.45102" lon="2.10607">
        <ele>1904</ele>
        <time>2013-08-17T09:04:09Z</time>
      </trkpt>
      <trkpt lat="42.45104" lon="2.10613">
        <ele>1905</ele>
        <time>2013-08-17T09:04:21Z</time>
      </trkpt>
      <trkpt lat="42.45102" lon="2.10622">
        <ele>1905</ele>
        <time>2013-08-17T09:04:29Z</time>
      </trkpt>
      <trkpt lat="42.45098" lon="2.10628">
        <ele>1906</ele>
        <time>2013-08-17T09:04:37Z</time>
      </trkpt>
      <trkpt lat="42.45097" lon="2.1063">
        <ele>1906.9</ele>
        <time>2013-08-17T09:04:39Z</time>
      </trkpt>
      <trkpt lat="42.45093" lon="2.10643">
        <ele>1908</ele>
        <time>2013-08-17T09:04:53Z</time>
      </trkpt>
      <trkpt lat="42.45085" lon="2.10647">
        <ele>1909</ele>
        <time>2013-08-17T09:05:01Z</time>
      </trkpt>
      <trkpt lat="42.45077" lon="2.10651">
        <ele>1909</ele>
        <time>2013-08-17T09:05:09Z</time>
      </trkpt>
      <trkpt lat="42.45073" lon="2.10657">
        <ele>1910</ele>
        <time>2013-08-17T09:05:17Z</time>
      </trkpt>
      <trkpt lat="42.45069" lon="2.10661">
        <ele>1910</ele>
        <time>2013-08-17T09:05:25Z</time>
      </trkpt>
      <trkpt lat="42.45065" lon="2.10668">
        <ele>1909</ele>
        <time>2013-08-17T09:05:33Z</time>
      </trkpt>
      <trkpt lat="42.45064" lon="2.10676">
        <ele>1910</ele>
        <time>2013-08-17T09:05:41Z</time>
      </trkpt>
      <trkpt lat="42.45064" lon="2.10679">
        <ele>1910.7</ele>
        <time>2013-08-17T09:05:43Z</time>
      </trkpt>
      <trkpt lat="42.45057" lon="2.10688">
        <ele>1911</ele>
        <time>2013-08-17T09:05:57Z</time>
      </trkpt>
      <trkpt lat="42.45051" lon="2.10691">
        <ele>1912</ele>
        <time>2013-08-17T09:06:05Z</time>
      </trkpt>
      <trkpt lat="42.45045" lon="2.10695">
        <ele>1912</ele>
        <time>2013-08-17T09:06:13Z</time>
      </trkpt>
      <trkpt lat="42.45041" lon="2.10699">
        <ele>1914</ele>
        <time>2013-08-17T09:06:21Z</time>
      </trkpt>
      <trkpt lat="42.45037" lon="2.10703">
        <ele>1914</ele>
        <time>2013-08-17T09:06:29Z</time>
      </trkpt>
      <trkpt lat="42.45032" lon="2.10706">
        <ele>1914</ele>
        <time>2013-08-17T09:06:37Z</time>
      </trkpt>
      <trkpt lat="42.45025" lon="2.1071">
        <ele>1914</ele>
        <time>2013-08-17T09:06:45Z</time>
      </trkpt>
      <trkpt lat="42.45023" lon="2.10712">
        <ele>1914.8</ele>
        <time>2013-08-17T09:06:47Z</time>
      </trkpt>
      <trkpt lat="42.45016" lon="2.10721">
        <ele>1916</ele>
        <time>2013-08-17T09:07:00Z</time>
      </trkpt>
      <trkpt lat="42.45017" lon="2.10729">
        <ele>1917</ele>
        <time>2013-08-17T09:07:12Z</time>
      </trkpt>
      <trkpt lat="42.45013" lon="2.10735">
        <ele>1917</ele>
        <time>2013-08-17T09:07:20Z</time>
      </trkpt>
      <trkpt lat="42.45006" lon="2.10742">
        <ele>1918</ele>
        <time>2013-08-17T09:07:28Z</time>
      </trkpt>
      <trkpt lat="42.45001" lon="2.10745">
        <ele>1919</ele>
        <time>2013-08-17T09:07:36Z</time>
      </trkpt>
      <trkpt lat="42.44995" lon="2.10747">
        <ele>1920</ele>
        <time>2013-08-17T09:07:48Z</time>
      </trkpt>
      <trkpt lat="42.44994" lon="2.10747">
        <ele>1920.8</ele>
        <time>2013-08-17T09:07:50Z</time>
      </trkpt>
      <trkpt lat="42.44986" lon="2.10747">
        <ele>1920.9</ele>
        <time>2013-08-17T09:10:17Z</time>
      </trkpt>
      <trkpt lat="42.45003" lon="2.10746">
        <ele>1920</ele>
        <time>2013-08-17T09:10:51Z</time>
      </trkpt>
      <trkpt lat="42.45006" lon="2.10735">
        <ele>1918</ele>
        <time>2013-08-17T09:10:59Z</time>
      </trkpt>
      <trkpt lat="42.45009" lon="2.10729">
        <ele>1918</ele>
        <time>2013-08-17T09:11:03Z</time>
      </trkpt>
      <trkpt lat="42.45017" lon="2.10723">
        <ele>1917</ele>
        <time>2013-08-17T09:11:11Z</time>
      </trkpt>
      <trkpt lat="42.45023" lon="2.10721">
        <ele>1917</ele>
        <time>2013-08-17T09:11:15Z</time>
      </trkpt>
      <trkpt lat="42.45027" lon="2.10718">
        <ele>1916</ele>
        <time>2013-08-17T09:11:23Z</time>
      </trkpt>
      <trkpt lat="42.45027" lon="2.10718">
        <ele>1916</ele>
        <time>2013-08-17T09:11:25Z</time>
      </trkpt>
      <trkpt lat="42.45035" lon="2.10706">
        <ele>1914</ele>
        <time>2013-08-17T09:11:43Z</time>
      </trkpt>
      <trkpt lat="42.45039" lon="2.10701">
        <ele>1914</ele>
        <time>2013-08-17T09:11:51Z</time>
      </trkpt>
      <trkpt lat="42.45045" lon="2.107">
        <ele>1914</ele>
        <time>2013-08-17T09:11:59Z</time>
      </trkpt>
      <trkpt lat="42.45052" lon="2.107">
        <ele>1913</ele>
        <time>2013-08-17T09:12:07Z</time>
      </trkpt>
      <trkpt lat="42.45056" lon="2.10699">
        <ele>1912</ele>
        <time>2013-08-17T09:12:15Z</time>
      </trkpt>
      <trkpt lat="42.45061" lon="2.10697">
        <ele>1912</ele>
        <time>2013-08-17T09:12:23Z</time>
      </trkpt>
      <trkpt lat="42.45067" lon="2.10693">
        <ele>1911</ele>
        <time>2013-08-17T09:12:33Z</time>
      </trkpt>
      <trkpt lat="42.45069" lon="2.1069">
        <ele>1911.5</ele>
        <time>2013-08-17T09:12:37Z</time>
      </trkpt>
      <trkpt lat="42.45073" lon="2.10679">
        <ele>1910</ele>
        <time>2013-08-17T09:12:50Z</time>
      </trkpt>
      <trkpt lat="42.45077" lon="2.10672">
        <ele>1909</ele>
        <time>2013-08-17T09:12:58Z</time>
      </trkpt>
      <trkpt lat="42.45081" lon="2.10668">
        <ele>1909</ele>
        <time>2013-08-17T09:13:02Z</time>
      </trkpt>
      <trkpt lat="42.45089" lon="2.10663">
        <ele>1909</ele>
        <time>2013-08-17T09:13:10Z</time>
      </trkpt>
      <trkpt lat="42.45096" lon="2.10661">
        <ele>1909</ele>
        <time>2013-08-17T09:13:18Z</time>
      </trkpt>
      <trkpt lat="42.45102" lon="2.10655">
        <ele>1908</ele>
        <time>2013-08-17T09:13:26Z</time>
      </trkpt>
      <trkpt lat="42.45106" lon="2.10646">
        <ele>1907</ele>
        <time>2013-08-17T09:13:34Z</time>
      </trkpt>
      <trkpt lat="42.45112" lon="2.10639">
        <ele>1907</ele>
        <time>2013-08-17T09:13:42Z</time>
      </trkpt>
      <trkpt lat="42.45112" lon="2.10637">
        <ele>1907.2</ele>
        <time>2013-08-17T09:13:44Z</time>
      </trkpt>
      <trkpt lat="42.45124" lon="2.10623">
        <ele>1905</ele>
        <time>2013-08-17T09:13:58Z</time>
      </trkpt>
      <trkpt lat="42.45128" lon="2.10617">
        <ele>1905</ele>
        <time>2013-08-17T09:14:02Z</time>
      </trkpt>
      <trkpt lat="42.45131" lon="2.10614">
        <ele>1904</ele>
        <time>2013-08-17T09:14:06Z</time>
      </trkpt>
      <trkpt lat="42.45136" lon="2.10607">
        <ele>1903</ele>
        <time>2013-08-17T09:14:14Z</time>
      </trkpt>
      <trkpt lat="42.45138" lon="2.10598">
        <ele>1902</ele>
        <time>2013-08-17T09:14:22Z</time>
      </trkpt>
      <trkpt lat="42.45139" lon="2.10588">
        <ele>1901</ele>
        <time>2013-08-17T09:14:30Z</time>
      </trkpt>
      <trkpt lat="42.45142" lon="2.10582">
        <ele>1901</ele>
        <time>2013-08-17T09:14:38Z</time>
      </trkpt>
      <trkpt lat="42.45147" lon="2.10576">
        <ele>1899</ele>
        <time>2013-08-17T09:14:46Z</time>
      </trkpt>
      <trkpt lat="42.45148" lon="2.10575">
        <ele>1899.7</ele>
        <time>2013-08-17T09:14:48Z</time>
      </trkpt>
      <trkpt lat="42.45153" lon="2.10566">
        <ele>1898</ele>
        <time>2013-08-17T09:15:02Z</time>
      </trkpt>
      <trkpt lat="42.45157" lon="2.10559">
        <ele>1898</ele>
        <time>2013-08-17T09:15:14Z</time>
      </trkpt>
      <trkpt lat="42.45161" lon="2.10555">
        <ele>1897</ele>
        <time>2013-08-17T09:15:22Z</time>
      </trkpt>
      <trkpt lat="42.45165" lon="2.1055">
        <ele>1895</ele>
        <time>2013-08-17T09:15:30Z</time>
      </trkpt>
      <trkpt lat="42.4517" lon="2.10545">
        <ele>1894</ele>
        <time>2013-08-17T09:15:38Z</time>
      </trkpt>
      <trkpt lat="42.45175" lon="2.10538">
        <ele>1893</ele>
        <time>2013-08-17T09:15:46Z</time>
      </trkpt>
      <trkpt lat="42.45181" lon="2.10532">
        <ele>1892</ele>
        <time>2013-08-17T09:15:54Z</time>
      </trkpt>
      <trkpt lat="42.45181" lon="2.10531">
        <ele>1892.4</ele>
        <time>2013-08-17T09:15:56Z</time>
      </trkpt>
      <trkpt lat="42.45193" lon="2.10526">
        <ele>1888</ele>
        <time>2013-08-17T09:16:14Z</time>
      </trkpt>
      <trkpt lat="42.45198" lon="2.1052">
        <ele>1888</ele>
        <time>2013-08-17T09:16:22Z</time>
      </trkpt>
      <trkpt lat="42.45206" lon="2.10515">
        <ele>1886</ele>
        <time>2013-08-17T09:16:30Z</time>
      </trkpt>
      <trkpt lat="42.45208" lon="2.10505">
        <ele>1886</ele>
        <time>2013-08-17T09:16:38Z</time>
      </trkpt>
      <trkpt lat="42.45212" lon="2.10496">
        <ele>1885</ele>
        <time>2013-08-17T09:16:46Z</time>
      </trkpt>
      <trkpt lat="42.45219" lon="2.10491">
        <ele>1884</ele>
        <time>2013-08-17T09:16:54Z</time>
      </trkpt>
      <trkpt lat="42.45223" lon="2.10488">
        <ele>1883</ele>
        <time>2013-08-17T09:16:58Z</time>
      </trkpt>
      <trkpt lat="42.45225" lon="2.10487">
        <ele>1883</ele>
        <time>2013-08-17T09:17:00Z</time>
      </trkpt>
      <trkpt lat="42.4523" lon="2.10477">
        <ele>1881</ele>
        <time>2013-08-17T09:17:06Z</time>
      </trkpt>
      <trkpt lat="42.45234" lon="2.10465">
        <ele>1880</ele>
        <time>2013-08-17T09:17:14Z</time>
      </trkpt>
      <trkpt lat="42.45239" lon="2.10457">
        <ele>1879</ele>
        <time>2013-08-17T09:17:22Z</time>
      </trkpt>
      <trkpt lat="42.45243" lon="2.10449">
        <ele>1878</ele>
        <time>2013-08-17T09:17:30Z</time>
      </trkpt>
      <trkpt lat="42.45249" lon="2.10444">
        <ele>1878</ele>
        <time>2013-08-17T09:17:38Z</time>
      </trkpt>
      <trkpt lat="42.4525" lon="2.10436">
        <ele>1875</ele>
        <time>2013-08-17T09:17:46Z</time>
      </trkpt>
      <trkpt lat="42.45249" lon="2.10426">
        <ele>1875</ele>
        <time>2013-08-17T09:17:54Z</time>
      </trkpt>
      <trkpt lat="42.4525" lon="2.10419">
        <ele>1875</ele>
        <time>2013-08-17T09:18:02Z</time>
      </trkpt>
      <trkpt lat="42.45251" lon="2.10419">
        <ele>1875.9</ele>
        <time>2013-08-17T09:18:04Z</time>
      </trkpt>
      <trkpt lat="42.45254" lon="2.10406">
        <ele>1875</ele>
        <time>2013-08-17T09:18:18Z</time>
      </trkpt>
      <trkpt lat="42.45259" lon="2.10399">
        <ele>1873</ele>
        <time>2013-08-17T09:18:26Z</time>
      </trkpt>
      <trkpt lat="42.45264" lon="2.10393">
        <ele>1873</ele>
        <time>2013-08-17T09:18:34Z</time>
      </trkpt>
      <trkpt lat="42.4527" lon="2.10389">
        <ele>1873</ele>
        <time>2013-08-17T09:18:42Z</time>
      </trkpt>
      <trkpt lat="42.45271" lon="2.10381">
        <ele>1872</ele>
        <time>2013-08-17T09:18:50Z</time>
      </trkpt>
      <trkpt lat="42.45271" lon="2.10374">
        <ele>1872</ele>
        <time>2013-08-17T09:18:54Z</time>
      </trkpt>
      <trkpt lat="42.45272" lon="2.10368">
        <ele>1871</ele>
        <time>2013-08-17T09:19:02Z</time>
      </trkpt>
      <trkpt lat="42.45278" lon="2.10365">
        <ele>1870</ele>
        <time>2013-08-17T09:19:10Z</time>
      </trkpt>
      <trkpt lat="42.45279" lon="2.10365">
        <ele>1870.9</ele>
        <time>2013-08-17T09:19:12Z</time>
      </trkpt>
      <trkpt lat="42.45289" lon="2.10358">
        <ele>1870</ele>
        <time>2013-08-17T09:19:22Z</time>
      </trkpt>
      <trkpt lat="42.45294" lon="2.10352">
        <ele>1869</ele>
        <time>2013-08-17T09:19:30Z</time>
      </trkpt>
      <trkpt lat="42.45299" lon="2.10348">
        <ele>1868</ele>
        <time>2013-08-17T09:19:38Z</time>
      </trkpt>
      <trkpt lat="42.45303" lon="2.10339">
        <ele>1867</ele>
        <time>2013-08-17T09:19:46Z</time>
      </trkpt>
      <trkpt lat="42.45308" lon="2.10331">
        <ele>1865</ele>
        <time>2013-08-17T09:19:54Z</time>
      </trkpt>
      <trkpt lat="42.45313" lon="2.10325">
        <ele>1865</ele>
        <time>2013-08-17T09:20:02Z</time>
      </trkpt>
      <trkpt lat="42.45316" lon="2.10315">
        <ele>1863</ele>
        <time>2013-08-17T09:20:10Z</time>
      </trkpt>
      <trkpt lat="42.45318" lon="2.10307">
        <ele>1863</ele>
        <time>2013-08-17T09:20:18Z</time>
      </trkpt>
      <trkpt lat="42.45318" lon="2.10306">
        <ele>1863.5</ele>
        <time>2013-08-17T09:20:20Z</time>
      </trkpt>
      <trkpt lat="42.45327" lon="2.10294">
        <ele>1862</ele>
        <time>2013-08-17T09:20:34Z</time>
      </trkpt>
      <trkpt lat="42.45334" lon="2.10289">
        <ele>1860</ele>
        <time>2013-08-17T09:20:42Z</time>
      </trkpt>
      <trkpt lat="42.45336" lon="2.10283">
        <ele>1859</ele>
        <time>2013-08-17T09:20:46Z</time>
      </trkpt>
      <trkpt lat="42.45339" lon="2.10274">
        <ele>1859</ele>
        <time>2013-08-17T09:20:54Z</time>
      </trkpt>
      <trkpt lat="42.45345" lon="2.10266">
        <ele>1857</ele>
        <time>2013-08-17T09:21:02Z</time>
      </trkpt>
      <trkpt lat="42.4535" lon="2.10264">
        <ele>1856</ele>
        <time>2013-08-17T09:21:06Z</time>
      </trkpt>
      <trkpt lat="42.45355" lon="2.1026">
        <ele>1855</ele>
        <time>2013-08-17T09:21:14Z</time>
      </trkpt>
      <trkpt lat="42.45361" lon="2.10255">
        <ele>1854</ele>
        <time>2013-08-17T09:21:20Z</time>
      </trkpt>
      <trkpt lat="42.45366" lon="2.10252">
        <ele>1854.4</ele>
        <time>2013-08-17T09:21:24Z</time>
      </trkpt>
      <trkpt lat="42.45375" lon="2.10244">
        <ele>1852</ele>
        <time>2013-08-17T09:21:34Z</time>
      </trkpt>
      <trkpt lat="42.45377" lon="2.10237">
        <ele>1851</ele>
        <time>2013-08-17T09:21:38Z</time>
      </trkpt>
      <trkpt lat="42.4538" lon="2.1023">
        <ele>1850</ele>
        <time>2013-08-17T09:21:46Z</time>
      </trkpt>
      <trkpt lat="42.45384" lon="2.10226">
        <ele>1850</ele>
        <time>2013-08-17T09:21:50Z</time>
      </trkpt>
      <trkpt lat="42.45388" lon="2.10218">
        <ele>1848</ele>
        <time>2013-08-17T09:21:58Z</time>
      </trkpt>
      <trkpt lat="42.45392" lon="2.10212">
        <ele>1848</ele>
        <time>2013-08-17T09:22:06Z</time>
      </trkpt>
      <trkpt lat="42.45395" lon="2.10206">
        <ele>1847</ele>
        <time>2013-08-17T09:22:10Z</time>
      </trkpt>
      <trkpt lat="42.454" lon="2.10201">
        <ele>1847</ele>
        <time>2013-08-17T09:22:14Z</time>
      </trkpt>
      <trkpt lat="42.45403" lon="2.10196">
        <ele>1846</ele>
        <time>2013-08-17T09:22:18Z</time>
      </trkpt>
      <trkpt lat="42.45407" lon="2.10191">
        <ele>1846</ele>
        <time>2013-08-17T09:22:22Z</time>
      </trkpt>
      <trkpt lat="42.45413" lon="2.10184">
        <ele>1846</ele>
        <time>2013-08-17T09:22:30Z</time>
      </trkpt>
      <trkpt lat="42.45414" lon="2.10183">
        <ele>1846.4</ele>
        <time>2013-08-17T09:22:32Z</time>
      </trkpt>
      <trkpt lat="42.45421" lon="2.10173">
        <ele>1845</ele>
        <time>2013-08-17T09:22:46Z</time>
      </trkpt>
      <trkpt lat="42.45426" lon="2.10171">
        <ele>1843</ele>
        <time>2013-08-17T09:22:50Z</time>
      </trkpt>
      <trkpt lat="42.45431" lon="2.10168">
        <ele>1842</ele>
        <time>2013-08-17T09:22:58Z</time>
      </trkpt>
      <trkpt lat="42.45436" lon="2.10164">
        <ele>1841</ele>
        <time>2013-08-17T09:23:02Z</time>
      </trkpt>
      <trkpt lat="42.4544" lon="2.1016">
        <ele>1840</ele>
        <time>2013-08-17T09:23:06Z</time>
      </trkpt>
      <trkpt lat="42.45447" lon="2.10153">
        <ele>1840</ele>
        <time>2013-08-17T09:23:14Z</time>
      </trkpt>
      <trkpt lat="42.45454" lon="2.10148">
        <ele>1839</ele>
        <time>2013-08-17T09:23:22Z</time>
      </trkpt>
      <trkpt lat="42.4546" lon="2.10139">
        <ele>1839</ele>
        <time>2013-08-17T09:23:30Z</time>
      </trkpt>
      <trkpt lat="42.45463" lon="2.10134">
        <ele>1839</ele>
        <time>2013-08-17T09:23:34Z</time>
      </trkpt>
      <trkpt lat="42.45464" lon="2.10133">
        <ele>1839.5</ele>
        <time>2013-08-17T09:23:36Z</time>
      </trkpt>
      <trkpt lat="42.45475" lon="2.10124">
        <ele>1839</ele>
        <time>2013-08-17T09:23:50Z</time>
      </trkpt>
      <trkpt lat="42.45482" lon="2.10121">
        <ele>1838</ele>
        <time>2013-08-17T09:23:55Z</time>
      </trkpt>
      <trkpt lat="42.45488" lon="2.10117">
        <ele>1837</ele>
        <time>2013-08-17T09:24:01Z</time>
      </trkpt>
      <trkpt lat="42.45493" lon="2.10112">
        <ele>1836</ele>
        <time>2013-08-17T09:24:09Z</time>
      </trkpt>
      <trkpt lat="42.45497" lon="2.10108">
        <ele>1835</ele>
        <time>2013-08-17T09:24:13Z</time>
      </trkpt>
      <trkpt lat="42.45501" lon="2.10104">
        <ele>1835</ele>
        <time>2013-08-17T09:24:18Z</time>
      </trkpt>
      <trkpt lat="42.45504" lon="2.10099">
        <ele>1834</ele>
        <time>2013-08-17T09:24:22Z</time>
      </trkpt>
      <trkpt lat="42.45509" lon="2.1009">
        <ele>1833</ele>
        <time>2013-08-17T09:24:30Z</time>
      </trkpt>
      <trkpt lat="42.45513" lon="2.10085">
        <ele>1833</ele>
        <time>2013-08-17T09:24:34Z</time>
      </trkpt>
      <trkpt lat="42.45515" lon="2.10079">
        <ele>1833</ele>
        <time>2013-08-17T09:24:38Z</time>
      </trkpt>
      <trkpt lat="42.45516" lon="2.10077">
        <ele>1833.2</ele>
        <time>2013-08-17T09:24:40Z</time>
      </trkpt>
      <trkpt lat="42.45523" lon="2.10058">
        <ele>1832</ele>
        <time>2013-08-17T09:24:54Z</time>
      </trkpt>
      <trkpt lat="42.45526" lon="2.10051">
        <ele>1832</ele>
        <time>2013-08-17T09:24:58Z</time>
      </trkpt>
      <trkpt lat="42.45528" lon="2.10045">
        <ele>1831</ele>
        <time>2013-08-17T09:25:02Z</time>
      </trkpt>
      <trkpt lat="42.45531" lon="2.1004">
        <ele>1831</ele>
        <time>2013-08-17T09:25:06Z</time>
      </trkpt>
      <trkpt lat="42.45534" lon="2.10031">
        <ele>1831</ele>
        <time>2013-08-17T09:25:14Z</time>
      </trkpt>
      <trkpt lat="42.45534" lon="2.1002">
        <ele>1830</ele>
        <time>2013-08-17T09:25:22Z</time>
      </trkpt>
      <trkpt lat="42.45539" lon="2.10015">
        <ele>1829</ele>
        <time>2013-08-17T09:25:30Z</time>
      </trkpt>
      <trkpt lat="42.45538" lon="2.10008">
        <ele>1828</ele>
        <time>2013-08-17T09:25:38Z</time>
      </trkpt>
      <trkpt lat="42.4554" lon="2.10001">
        <ele>1827</ele>
        <time>2013-08-17T09:25:50Z</time>
      </trkpt>
      <trkpt lat="42.45541" lon="2.10001">
        <ele>1827.2</ele>
        <time>2013-08-17T09:25:52Z</time>
      </trkpt>
      <trkpt lat="42.45551" lon="2.09992">
        <ele>1824</ele>
        <time>2013-08-17T09:26:10Z</time>
      </trkpt>
      <trkpt lat="42.45555" lon="2.09986">
        <ele>1823</ele>
        <time>2013-08-17T09:26:18Z</time>
      </trkpt>
      <trkpt lat="42.45558" lon="2.09977">
        <ele>1822</ele>
        <time>2013-08-17T09:26:23Z</time>
      </trkpt>
      <trkpt lat="42.45562" lon="2.0997">
        <ele>1822</ele>
        <time>2013-08-17T09:26:29Z</time>
      </trkpt>
      <trkpt lat="42.45567" lon="2.09965">
        <ele>1821</ele>
        <time>2013-08-17T09:26:37Z</time>
      </trkpt>
      <trkpt lat="42.45573" lon="2.09957">
        <ele>1819</ele>
        <time>2013-08-17T09:26:45Z</time>
      </trkpt>
      <trkpt lat="42.45577" lon="2.09955">
        <ele>1818</ele>
        <time>2013-08-17T09:26:49Z</time>
      </trkpt>
      <trkpt lat="42.45582" lon="2.09951">
        <ele>1817</ele>
        <time>2013-08-17T09:26:53Z</time>
      </trkpt>
      <trkpt lat="42.45584" lon="2.09949">
        <ele>1817.6</ele>
        <time>2013-08-17T09:26:55Z</time>
      </trkpt>
      <trkpt lat="42.45591" lon="2.0994">
        <ele>1817</ele>
        <time>2013-08-17T09:27:01Z</time>
      </trkpt>
      <trkpt lat="42.45595" lon="2.09936">
        <ele>1816</ele>
        <time>2013-08-17T09:27:05Z</time>
      </trkpt>
      <trkpt lat="42.45597" lon="2.0993">
        <ele>1816</ele>
        <time>2013-08-17T09:27:09Z</time>
      </trkpt>
      <trkpt lat="42.45601" lon="2.09924">
        <ele>1815</ele>
        <time>2013-08-17T09:27:17Z</time>
      </trkpt>
      <trkpt lat="42.45606" lon="2.0992">
        <ele>1814</ele>
        <time>2013-08-17T09:27:25Z</time>
      </trkpt>
      <trkpt lat="42.45611" lon="2.09914">
        <ele>1813</ele>
        <time>2013-08-17T09:27:33Z</time>
      </trkpt>
      <trkpt lat="42.45614" lon="2.09903">
        <ele>1812</ele>
        <time>2013-08-17T09:27:41Z</time>
      </trkpt>
      <trkpt lat="42.45619" lon="2.09901">
        <ele>1812</ele>
        <time>2013-08-17T09:27:45Z</time>
      </trkpt>
      <trkpt lat="42.45623" lon="2.09897">
        <ele>1811</ele>
        <time>2013-08-17T09:27:49Z</time>
      </trkpt>
      <trkpt lat="42.45626" lon="2.09892">
        <ele>1810</ele>
        <time>2013-08-17T09:27:53Z</time>
      </trkpt>
      <trkpt lat="42.45634" lon="2.09885">
        <ele>1809</ele>
        <time>2013-08-17T09:28:01Z</time>
      </trkpt>
      <trkpt lat="42.45634" lon="2.09883">
        <ele>1809.5</ele>
        <time>2013-08-17T09:28:03Z</time>
      </trkpt>
      <trkpt lat="42.45641" lon="2.09867">
        <ele>1807</ele>
        <time>2013-08-17T09:28:13Z</time>
      </trkpt>
      <trkpt lat="42.45644" lon="2.09861">
        <ele>1806</ele>
        <time>2013-08-17T09:28:21Z</time>
      </trkpt>
      <trkpt lat="42.45649" lon="2.09853">
        <ele>1804</ele>
        <time>2013-08-17T09:28:29Z</time>
      </trkpt>
      <trkpt lat="42.45654" lon="2.09851">
        <ele>1804</ele>
        <time>2013-08-17T09:28:33Z</time>
      </trkpt>
      <trkpt lat="42.45658" lon="2.09847">
        <ele>1804</ele>
        <time>2013-08-17T09:28:37Z</time>
      </trkpt>
      <trkpt lat="42.45665" lon="2.09838">
        <ele>1803</ele>
        <time>2013-08-17T09:28:45Z</time>
      </trkpt>
      <trkpt lat="42.45668" lon="2.09831">
        <ele>1802</ele>
        <time>2013-08-17T09:28:53Z</time>
      </trkpt>
      <trkpt lat="42.4567" lon="2.09819">
        <ele>1801</ele>
        <time>2013-08-17T09:29:01Z</time>
      </trkpt>
      <trkpt lat="42.45673" lon="2.09814">
        <ele>1800</ele>
        <time>2013-08-17T09:29:05Z</time>
      </trkpt>
      <trkpt lat="42.45673" lon="2.09811">
        <ele>1800.6</ele>
        <time>2013-08-17T09:29:07Z</time>
      </trkpt>
      <trkpt lat="42.45675" lon="2.09799">
        <ele>1800</ele>
        <time>2013-08-17T09:29:13Z</time>
      </trkpt>
      <trkpt lat="42.45677" lon="2.09792">
        <ele>1799</ele>
        <time>2013-08-17T09:29:21Z</time>
      </trkpt>
      <trkpt lat="42.45681" lon="2.09785">
        <ele>1798</ele>
        <time>2013-08-17T09:29:29Z</time>
      </trkpt>
      <trkpt lat="42.45687" lon="2.09782">
        <ele>1797</ele>
        <time>2013-08-17T09:29:33Z</time>
      </trkpt>
      <trkpt lat="42.45692" lon="2.09779">
        <ele>1796</ele>
        <time>2013-08-17T09:29:37Z</time>
      </trkpt>
      <trkpt lat="42.45698" lon="2.09775">
        <ele>1795</ele>
        <time>2013-08-17T09:29:45Z</time>
      </trkpt>
      <trkpt lat="42.45703" lon="2.09769">
        <ele>1794</ele>
        <time>2013-08-17T09:29:53Z</time>
      </trkpt>
      <trkpt lat="42.4571" lon="2.09761">
        <ele>1793</ele>
        <time>2013-08-17T09:30:01Z</time>
      </trkpt>
      <trkpt lat="42.45715" lon="2.09757">
        <ele>1793</ele>
        <time>2013-08-17T09:30:05Z</time>
      </trkpt>
      <trkpt lat="42.45719" lon="2.09753">
        <ele>1793</ele>
        <time>2013-08-17T09:30:09Z</time>
      </trkpt>
      <trkpt lat="42.4572" lon="2.09751">
        <ele>1793</ele>
        <time>2013-08-17T09:30:11Z</time>
      </trkpt>
      <trkpt lat="42.45724" lon="2.09736">
        <ele>1791</ele>
        <time>2013-08-17T09:30:21Z</time>
      </trkpt>
      <trkpt lat="42.45727" lon="2.0973">
        <ele>1790</ele>
        <time>2013-08-17T09:30:25Z</time>
      </trkpt>
      <trkpt lat="42.45727" lon="2.09723">
        <ele>1790</ele>
        <time>2013-08-17T09:30:29Z</time>
      </trkpt>
      <trkpt lat="42.45729" lon="2.09714">
        <ele>1789</ele>
        <time>2013-08-17T09:30:34Z</time>
      </trkpt>
      <trkpt lat="42.4573" lon="2.09703">
        <ele>1790</ele>
        <time>2013-08-17T09:30:39Z</time>
      </trkpt>
      <trkpt lat="42.45733" lon="2.09699">
        <ele>1789</ele>
        <time>2013-08-17T09:30:43Z</time>
      </trkpt>
      <trkpt lat="42.45737" lon="2.09695">
        <ele>1789</ele>
        <time>2013-08-17T09:30:47Z</time>
      </trkpt>
      <trkpt lat="42.45741" lon="2.0969">
        <ele>1789</ele>
        <time>2013-08-17T09:30:51Z</time>
      </trkpt>
      <trkpt lat="42.45745" lon="2.09687">
        <ele>1789</ele>
        <time>2013-08-17T09:30:55Z</time>
      </trkpt>
      <trkpt lat="42.45749" lon="2.09683">
        <ele>1788</ele>
        <time>2013-08-17T09:30:59Z</time>
      </trkpt>
      <trkpt lat="42.45754" lon="2.09681">
        <ele>1787</ele>
        <time>2013-08-17T09:31:07Z</time>
      </trkpt>
      <trkpt lat="42.4576" lon="2.09679">
        <ele>1786</ele>
        <time>2013-08-17T09:31:15Z</time>
      </trkpt>
      <trkpt lat="42.45762" lon="2.09679">
        <ele>1786.4</ele>
        <time>2013-08-17T09:31:17Z</time>
      </trkpt>
      <trkpt lat="42.45769" lon="2.09672">
        <ele>1784</ele>
        <time>2013-08-17T09:31:31Z</time>
      </trkpt>
      <trkpt lat="42.45776" lon="2.09671">
        <ele>1783</ele>
        <time>2013-08-17T09:31:39Z</time>
      </trkpt>
      <trkpt lat="42.45781" lon="2.09671">
        <ele>1782</ele>
        <time>2013-08-17T09:31:43Z</time>
      </trkpt>
      <trkpt lat="42.45788" lon="2.09669">
        <ele>1781</ele>
        <time>2013-08-17T09:31:55Z</time>
      </trkpt>
      <trkpt lat="42.45792" lon="2.09668">
        <ele>1781</ele>
        <time>2013-08-17T09:31:59Z</time>
      </trkpt>
      <trkpt lat="42.458" lon="2.09664">
        <ele>1780</ele>
        <time>2013-08-17T09:32:07Z</time>
      </trkpt>
      <trkpt lat="42.45807" lon="2.09658">
        <ele>1780</ele>
        <time>2013-08-17T09:32:15Z</time>
      </trkpt>
      <trkpt lat="42.45812" lon="2.09654">
        <ele>1779</ele>
        <time>2013-08-17T09:32:19Z</time>
      </trkpt>
      <trkpt lat="42.45814" lon="2.09653">
        <ele>1779.9</ele>
        <time>2013-08-17T09:32:21Z</time>
      </trkpt>
      <trkpt lat="42.45823" lon="2.09646">
        <ele>1778</ele>
        <time>2013-08-17T09:32:31Z</time>
      </trkpt>
      <trkpt lat="42.45826" lon="2.09641">
        <ele>1777</ele>
        <time>2013-08-17T09:32:35Z</time>
      </trkpt>
      <trkpt lat="42.4583" lon="2.09633">
        <ele>1777</ele>
        <time>2013-08-17T09:32:39Z</time>
      </trkpt>
      <trkpt lat="42.45836" lon="2.09627">
        <ele>1777</ele>
        <time>2013-08-17T09:32:43Z</time>
      </trkpt>
      <trkpt lat="42.45841" lon="2.09615">
        <ele>1776</ele>
        <time>2013-08-17T09:32:51Z</time>
      </trkpt>
      <trkpt lat="42.45843" lon="2.09609">
        <ele>1776</ele>
        <time>2013-08-17T09:32:55Z</time>
      </trkpt>
      <trkpt lat="42.45846" lon="2.09604">
        <ele>1776</ele>
        <time>2013-08-17T09:33:03Z</time>
      </trkpt>
      <trkpt lat="42.45851" lon="2.09596">
        <ele>1775</ele>
        <time>2013-08-17T09:33:11Z</time>
      </trkpt>
      <trkpt lat="42.45855" lon="2.0959">
        <ele>1774</ele>
        <time>2013-08-17T09:33:19Z</time>
      </trkpt>
      <trkpt lat="42.45857" lon="2.09581">
        <ele>1772</ele>
        <time>2013-08-17T09:33:27Z</time>
      </trkpt>
      <trkpt lat="42.45858" lon="2.09579">
        <ele>1773</ele>
        <time>2013-08-17T09:33:29Z</time>
      </trkpt>
      <trkpt lat="42.45868" lon="2.0957">
        <ele>1770</ele>
        <time>2013-08-17T09:33:43Z</time>
      </trkpt>
      <trkpt lat="42.45873" lon="2.09566">
        <ele>1769</ele>
        <time>2013-08-17T09:33:51Z</time>
      </trkpt>
      <trkpt lat="42.45877" lon="2.09563">
        <ele>1769</ele>
        <time>2013-08-17T09:33:55Z</time>
      </trkpt>
      <trkpt lat="42.45883" lon="2.09556">
        <ele>1768</ele>
        <time>2013-08-17T09:34:03Z</time>
      </trkpt>
      <trkpt lat="42.4589" lon="2.09546">
        <ele>1768</ele>
        <time>2013-08-17T09:34:11Z</time>
      </trkpt>
      <trkpt lat="42.45896" lon="2.09538">
        <ele>1768</ele>
        <time>2013-08-17T09:34:19Z</time>
      </trkpt>
      <trkpt lat="42.459" lon="2.09532">
        <ele>1768</ele>
        <time>2013-08-17T09:34:23Z</time>
      </trkpt>
      <trkpt lat="42.45903" lon="2.09524">
        <ele>1768</ele>
        <time>2013-08-17T09:34:27Z</time>
      </trkpt>
      <trkpt lat="42.45906" lon="2.09518">
        <ele>1768</ele>
        <time>2013-08-17T09:34:31Z</time>
      </trkpt>
      <trkpt lat="42.45907" lon="2.09515">
        <ele>1768.3</ele>
        <time>2013-08-17T09:34:33Z</time>
      </trkpt>
      <trkpt lat="42.45919" lon="2.095">
        <ele>1767</ele>
        <time>2013-08-17T09:34:43Z</time>
      </trkpt>
      <trkpt lat="42.45923" lon="2.09493">
        <ele>1766</ele>
        <time>2013-08-17T09:34:48Z</time>
      </trkpt>
      <trkpt lat="42.45926" lon="2.09487">
        <ele>1766</ele>
        <time>2013-08-17T09:34:52Z</time>
      </trkpt>
      <trkpt lat="42.45932" lon="2.0948">
        <ele>1767</ele>
        <time>2013-08-17T09:34:56Z</time>
      </trkpt>
      <trkpt lat="42.45935" lon="2.09473">
        <ele>1766</ele>
        <time>2013-08-17T09:35:00Z</time>
      </trkpt>
      <trkpt lat="42.45938" lon="2.09468">
        <ele>1765</ele>
        <time>2013-08-17T09:35:04Z</time>
      </trkpt>
      <trkpt lat="42.45941" lon="2.09458">
        <ele>1766</ele>
        <time>2013-08-17T09:35:12Z</time>
      </trkpt>
      <trkpt lat="42.45945" lon="2.09452">
        <ele>1766</ele>
        <time>2013-08-17T09:35:16Z</time>
      </trkpt>
      <trkpt lat="42.45952" lon="2.09445">
        <ele>1767</ele>
        <time>2013-08-17T09:35:24Z</time>
      </trkpt>
      <trkpt lat="42.45956" lon="2.0944">
        <ele>1766</ele>
        <time>2013-08-17T09:35:28Z</time>
      </trkpt>
      <trkpt lat="42.45957" lon="2.09427">
        <ele>1765</ele>
        <time>2013-08-17T09:35:36Z</time>
      </trkpt>
      <trkpt lat="42.45957" lon="2.09425">
        <ele>1765.9</ele>
        <time>2013-08-17T09:35:38Z</time>
      </trkpt>
      <trkpt lat="42.45963" lon="2.09418">
        <ele>1766</ele>
        <time>2013-08-17T09:35:48Z</time>
      </trkpt>
      <trkpt lat="42.45967" lon="2.09416">
        <ele>1765</ele>
        <time>2013-08-17T09:35:52Z</time>
      </trkpt>
      <trkpt lat="42.45973" lon="2.09407">
        <ele>1765</ele>
        <time>2013-08-17T09:36:00Z</time>
      </trkpt>
      <trkpt lat="42.45976" lon="2.09401">
        <ele>1765</ele>
        <time>2013-08-17T09:36:04Z</time>
      </trkpt>
      <trkpt lat="42.45978" lon="2.09395">
        <ele>1764</ele>
        <time>2013-08-17T09:36:08Z</time>
      </trkpt>
      <trkpt lat="42.45982" lon="2.09391">
        <ele>1764</ele>
        <time>2013-08-17T09:36:12Z</time>
      </trkpt>
      <trkpt lat="42.45989" lon="2.09385">
        <ele>1764</ele>
        <time>2013-08-17T09:36:16Z</time>
      </trkpt>
      <trkpt lat="42.45996" lon="2.09382">
        <ele>1764</ele>
        <time>2013-08-17T09:36:20Z</time>
      </trkpt>
      <trkpt lat="42.46002" lon="2.09379">
        <ele>1764</ele>
        <time>2013-08-17T09:36:24Z</time>
      </trkpt>
      <trkpt lat="42.46006" lon="2.09374">
        <ele>1763</ele>
        <time>2013-08-17T09:36:28Z</time>
      </trkpt>
      <trkpt lat="42.46009" lon="2.09369">
        <ele>1762</ele>
        <time>2013-08-17T09:36:32Z</time>
      </trkpt>
      <trkpt lat="42.46014" lon="2.09356">
        <ele>1763</ele>
        <time>2013-08-17T09:36:40Z</time>
      </trkpt>
      <trkpt lat="42.46016" lon="2.09353">
        <ele>1763</ele>
        <time>2013-08-17T09:36:42Z</time>
      </trkpt>
      <trkpt lat="42.4602" lon="2.09343">
        <ele>1762</ele>
        <time>2013-08-17T09:36:48Z</time>
      </trkpt>
      <trkpt lat="42.46024" lon="2.09334">
        <ele>1761</ele>
        <time>2013-08-17T09:36:56Z</time>
      </trkpt>
      <trkpt lat="42.46028" lon="2.0933">
        <ele>1762</ele>
        <time>2013-08-17T09:37:00Z</time>
      </trkpt>
      <trkpt lat="42.46031" lon="2.09324">
        <ele>1761</ele>
        <time>2013-08-17T09:37:04Z</time>
      </trkpt>
      <trkpt lat="42.46034" lon="2.09317">
        <ele>1761</ele>
        <time>2013-08-17T09:37:08Z</time>
      </trkpt>
      <trkpt lat="42.46038" lon="2.09306">
        <ele>1761</ele>
        <time>2013-08-17T09:37:16Z</time>
      </trkpt>
      <trkpt lat="42.46042" lon="2.093">
        <ele>1761</ele>
        <time>2013-08-17T09:37:20Z</time>
      </trkpt>
      <trkpt lat="42.46045" lon="2.09295">
        <ele>1760</ele>
        <time>2013-08-17T09:37:24Z</time>
      </trkpt>
      <trkpt lat="42.46048" lon="2.0929">
        <ele>1760</ele>
        <time>2013-08-17T09:37:28Z</time>
      </trkpt>
      <trkpt lat="42.46053" lon="2.09286">
        <ele>1759</ele>
        <time>2013-08-17T09:37:32Z</time>
      </trkpt>
      <trkpt lat="42.46058" lon="2.09281">
        <ele>1758</ele>
        <time>2013-08-17T09:37:36Z</time>
      </trkpt>
      <trkpt lat="42.46063" lon="2.09273">
        <ele>1757</ele>
        <time>2013-08-17T09:37:44Z</time>
      </trkpt>
      <trkpt lat="42.46064" lon="2.09271">
        <ele>1757.4</ele>
        <time>2013-08-17T09:37:46Z</time>
      </trkpt>
      <trkpt lat="42.46067" lon="2.09261">
        <ele>1756</ele>
        <time>2013-08-17T09:37:52Z</time>
      </trkpt>
      <trkpt lat="42.46069" lon="2.09256">
        <ele>1756</ele>
        <time>2013-08-17T09:37:56Z</time>
      </trkpt>
      <trkpt lat="42.46072" lon="2.0925">
        <ele>1756</ele>
        <time>2013-08-17T09:38:00Z</time>
      </trkpt>
      <trkpt lat="42.46077" lon="2.09242">
        <ele>1755</ele>
        <time>2013-08-17T09:38:08Z</time>
      </trkpt>
      <trkpt lat="42.46084" lon="2.09234">
        <ele>1753</ele>
        <time>2013-08-17T09:38:17Z</time>
      </trkpt>
      <trkpt lat="42.46088" lon="2.0923">
        <ele>1752</ele>
        <time>2013-08-17T09:38:21Z</time>
      </trkpt>
      <trkpt lat="42.46092" lon="2.09225">
        <ele>1753</ele>
        <time>2013-08-17T09:38:25Z</time>
      </trkpt>
      <trkpt lat="42.46096" lon="2.09216">
        <ele>1752</ele>
        <time>2013-08-17T09:38:33Z</time>
      </trkpt>
      <trkpt lat="42.46096" lon="2.09206">
        <ele>1751</ele>
        <time>2013-08-17T09:38:41Z</time>
      </trkpt>
      <trkpt lat="42.46097" lon="2.09199">
        <ele>1751</ele>
        <time>2013-08-17T09:38:49Z</time>
      </trkpt>
      <trkpt lat="42.46097" lon="2.09196">
        <ele>1751.2</ele>
        <time>2013-08-17T09:38:51Z</time>
      </trkpt>
      <trkpt lat="42.46102" lon="2.09186">
        <ele>1749</ele>
        <time>2013-08-17T09:39:00Z</time>
      </trkpt>
      <trkpt lat="42.46104" lon="2.09179">
        <ele>1749</ele>
        <time>2013-08-17T09:39:04Z</time>
      </trkpt>
      <trkpt lat="42.46111" lon="2.09171">
        <ele>1748</ele>
        <time>2013-08-17T09:39:12Z</time>
      </trkpt>
      <trkpt lat="42.46118" lon="2.09165">
        <ele>1746</ele>
        <time>2013-08-17T09:39:20Z</time>
      </trkpt>
      <trkpt lat="42.46118" lon="2.09155">
        <ele>1746</ele>
        <time>2013-08-17T09:39:29Z</time>
      </trkpt>
      <trkpt lat="42.46121" lon="2.0915">
        <ele>1746</ele>
        <time>2013-08-17T09:39:53Z</time>
      </trkpt>
      <trkpt lat="42.46122" lon="2.09149">
        <ele>1746.1</ele>
        <time>2013-08-17T09:39:55Z</time>
      </trkpt>
      <trkpt lat="42.46136" lon="2.09144">
        <ele>1744</ele>
        <time>2013-08-17T09:40:09Z</time>
      </trkpt>
      <trkpt lat="42.46141" lon="2.09142">
        <ele>1743</ele>
        <time>2013-08-17T09:40:17Z</time>
      </trkpt>
      <trkpt lat="42.46148" lon="2.09141">
        <ele>1741</ele>
        <time>2013-08-17T09:40:26Z</time>
      </trkpt>
      <trkpt lat="42.46153" lon="2.0914">
        <ele>1741</ele>
        <time>2013-08-17T09:40:30Z</time>
      </trkpt>
      <trkpt lat="42.46158" lon="2.09138">
        <ele>1740</ele>
        <time>2013-08-17T09:40:38Z</time>
      </trkpt>
      <trkpt lat="42.46167" lon="2.09137">
        <ele>1739</ele>
        <time>2013-08-17T09:40:46Z</time>
      </trkpt>
      <trkpt lat="42.46172" lon="2.09137">
        <ele>1739</ele>
        <time>2013-08-17T09:40:50Z</time>
      </trkpt>
      <trkpt lat="42.46179" lon="2.09133">
        <ele>1738</ele>
        <time>2013-08-17T09:40:58Z</time>
      </trkpt>
      <trkpt lat="42.4618" lon="2.09132">
        <ele>1738.4</ele>
        <time>2013-08-17T09:41:00Z</time>
      </trkpt>
      <trkpt lat="42.46188" lon="2.0912">
        <ele>1735</ele>
        <time>2013-08-17T09:41:14Z</time>
      </trkpt>
      <trkpt lat="42.46194" lon="2.09114">
        <ele>1735</ele>
        <time>2013-08-17T09:41:22Z</time>
      </trkpt>
      <trkpt lat="42.462" lon="2.09107">
        <ele>1734</ele>
        <time>2013-08-17T09:41:30Z</time>
      </trkpt>
      <trkpt lat="42.46205" lon="2.09105">
        <ele>1733</ele>
        <time>2013-08-17T09:41:38Z</time>
      </trkpt>
      <trkpt lat="42.46213" lon="2.09104">
        <ele>1732</ele>
        <time>2013-08-17T09:41:46Z</time>
      </trkpt>
      <trkpt lat="42.4622" lon="2.09101">
        <ele>1732</ele>
        <time>2013-08-17T09:41:52Z</time>
      </trkpt>
      <trkpt lat="42.46225" lon="2.09095">
        <ele>1732</ele>
        <time>2013-08-17T09:41:58Z</time>
      </trkpt>
      <trkpt lat="42.46228" lon="2.09088">
        <ele>1732</ele>
        <time>2013-08-17T09:42:02Z</time>
      </trkpt>
      <trkpt lat="42.46229" lon="2.09086">
        <ele>1732.3</ele>
        <time>2013-08-17T09:42:04Z</time>
      </trkpt>
      <trkpt lat="42.46238" lon="2.09077">
        <ele>1732</ele>
        <time>2013-08-17T09:42:14Z</time>
      </trkpt>
      <trkpt lat="42.46245" lon="2.0907">
        <ele>1731</ele>
        <time>2013-08-17T09:42:22Z</time>
      </trkpt>
      <trkpt lat="42.46251" lon="2.09069">
        <ele>1731</ele>
        <time>2013-08-17T09:42:26Z</time>
      </trkpt>
      <trkpt lat="42.46255" lon="2.09068">
        <ele>1730</ele>
        <time>2013-08-17T09:42:30Z</time>
      </trkpt>
      <trkpt lat="42.4626" lon="2.09065">
        <ele>1730</ele>
        <time>2013-08-17T09:42:34Z</time>
      </trkpt>
      <trkpt lat="42.46267" lon="2.09063">
        <ele>1728</ele>
        <time>2013-08-17T09:42:42Z</time>
      </trkpt>
      <trkpt lat="42.46272" lon="2.09063">
        <ele>1727</ele>
        <time>2013-08-17T09:42:46Z</time>
      </trkpt>
      <trkpt lat="42.46281" lon="2.09059">
        <ele>1727</ele>
        <time>2013-08-17T09:42:54Z</time>
      </trkpt>
      <trkpt lat="42.46287" lon="2.09057">
        <ele>1726</ele>
        <time>2013-08-17T09:42:58Z</time>
      </trkpt>
      <trkpt lat="42.46292" lon="2.09055">
        <ele>1726</ele>
        <time>2013-08-17T09:43:02Z</time>
      </trkpt>
      <trkpt lat="42.46296" lon="2.09051">
        <ele>1726</ele>
        <time>2013-08-17T09:43:06Z</time>
      </trkpt>
      <trkpt lat="42.46298" lon="2.09049">
        <ele>1727</ele>
        <time>2013-08-17T09:43:08Z</time>
      </trkpt>
      <trkpt lat="42.46306" lon="2.09041">
        <ele>1726</ele>
        <time>2013-08-17T09:43:14Z</time>
      </trkpt>
      <trkpt lat="42.4631" lon="2.09038">
        <ele>1725</ele>
        <time>2013-08-17T09:43:18Z</time>
      </trkpt>
      <trkpt lat="42.46318" lon="2.09033">
        <ele>1726</ele>
        <time>2013-08-17T09:43:26Z</time>
      </trkpt>
      <trkpt lat="42.46324" lon="2.09028">
        <ele>1725</ele>
        <time>2013-08-17T09:43:30Z</time>
      </trkpt>
      <trkpt lat="42.4633" lon="2.09023">
        <ele>1725</ele>
        <time>2013-08-17T09:43:34Z</time>
      </trkpt>
      <trkpt lat="42.46334" lon="2.09019">
        <ele>1725</ele>
        <time>2013-08-17T09:43:38Z</time>
      </trkpt>
      <trkpt lat="42.4634" lon="2.09016">
        <ele>1724</ele>
        <time>2013-08-17T09:43:42Z</time>
      </trkpt>
      <trkpt lat="42.46344" lon="2.09011">
        <ele>1724</ele>
        <time>2013-08-17T09:43:46Z</time>
      </trkpt>
      <trkpt lat="42.46349" lon="2.09005">
        <ele>1723</ele>
        <time>2013-08-17T09:43:50Z</time>
      </trkpt>
      <trkpt lat="42.46353" lon="2.08999">
        <ele>1723</ele>
        <time>2013-08-17T09:43:54Z</time>
      </trkpt>
      <trkpt lat="42.46358" lon="2.08993">
        <ele>1723</ele>
        <time>2013-08-17T09:43:58Z</time>
      </trkpt>
      <trkpt lat="42.4636" lon="2.08988">
        <ele>1722</ele>
        <time>2013-08-17T09:44:02Z</time>
      </trkpt>
      <trkpt lat="42.46361" lon="2.08981">
        <ele>1722</ele>
        <time>2013-08-17T09:44:06Z</time>
      </trkpt>
      <trkpt lat="42.46362" lon="2.08974">
        <ele>1722</ele>
        <time>2013-08-17T09:44:10Z</time>
      </trkpt>
      <trkpt lat="42.46362" lon="2.08971">
        <ele>1722</ele>
        <time>2013-08-17T09:44:12Z</time>
      </trkpt>
      <trkpt lat="42.46364" lon="2.0896">
        <ele>1720</ele>
        <time>2013-08-17T09:44:18Z</time>
      </trkpt>
      <trkpt lat="42.46365" lon="2.08952">
        <ele>1720</ele>
        <time>2013-08-17T09:44:22Z</time>
      </trkpt>
      <trkpt lat="42.46368" lon="2.08945">
        <ele>1720</ele>
        <time>2013-08-17T09:44:26Z</time>
      </trkpt>
      <trkpt lat="42.46371" lon="2.08939">
        <ele>1720</ele>
        <time>2013-08-17T09:44:30Z</time>
      </trkpt>
      <trkpt lat="42.46373" lon="2.08934">
        <ele>1721</ele>
        <time>2013-08-17T09:44:34Z</time>
      </trkpt>
      <trkpt lat="42.46379" lon="2.08924">
        <ele>1720</ele>
        <time>2013-08-17T09:44:42Z</time>
      </trkpt>
      <trkpt lat="42.46384" lon="2.0892">
        <ele>1719</ele>
        <time>2013-08-17T09:44:46Z</time>
      </trkpt>
      <trkpt lat="42.46389" lon="2.08915">
        <ele>1719</ele>
        <time>2013-08-17T09:44:50Z</time>
      </trkpt>
      <trkpt lat="42.46396" lon="2.08909">
        <ele>1718</ele>
        <time>2013-08-17T09:44:58Z</time>
      </trkpt>
      <trkpt lat="42.46399" lon="2.08904">
        <ele>1718</ele>
        <time>2013-08-17T09:45:02Z</time>
      </trkpt>
      <trkpt lat="42.46402" lon="2.08899">
        <ele>1717</ele>
        <time>2013-08-17T09:45:06Z</time>
      </trkpt>
      <trkpt lat="42.46406" lon="2.08895">
        <ele>1717</ele>
        <time>2013-08-17T09:45:10Z</time>
      </trkpt>
      <trkpt lat="42.4641" lon="2.0889">
        <ele>1717</ele>
        <time>2013-08-17T09:45:14Z</time>
      </trkpt>
      <trkpt lat="42.46412" lon="2.08888">
        <ele>1717.9</ele>
        <time>2013-08-17T09:45:16Z</time>
      </trkpt>
      <trkpt lat="42.46417" lon="2.0888">
        <ele>1716</ele>
        <time>2013-08-17T09:45:22Z</time>
      </trkpt>
      <trkpt lat="42.46421" lon="2.08876">
        <ele>1716</ele>
        <time>2013-08-17T09:45:26Z</time>
      </trkpt>
      <trkpt lat="42.46425" lon="2.0887">
        <ele>1716</ele>
        <time>2013-08-17T09:45:30Z</time>
      </trkpt>
      <trkpt lat="42.46429" lon="2.08866">
        <ele>1715</ele>
        <time>2013-08-17T09:45:34Z</time>
      </trkpt>
      <trkpt lat="42.46436" lon="2.08857">
        <ele>1714</ele>
        <time>2013-08-17T09:45:42Z</time>
      </trkpt>
      <trkpt lat="42.46439" lon="2.0885">
        <ele>1714</ele>
        <time>2013-08-17T09:45:50Z</time>
      </trkpt>
      <trkpt lat="42.46445" lon="2.08842">
        <ele>1714</ele>
        <time>2013-08-17T09:45:58Z</time>
      </trkpt>
      <trkpt lat="42.4645" lon="2.08833">
        <ele>1714</ele>
        <time>2013-08-17T09:46:06Z</time>
      </trkpt>
      <trkpt lat="42.46453" lon="2.08826">
        <ele>1713</ele>
        <time>2013-08-17T09:46:18Z</time>
      </trkpt>
      <trkpt lat="42.46454" lon="2.08826">
        <ele>1714.2</ele>
        <time>2013-08-17T09:46:20Z</time>
      </trkpt>
      <trkpt lat="42.46463" lon="2.08821">
        <ele>1712</ele>
        <time>2013-08-17T09:46:30Z</time>
      </trkpt>
      <trkpt lat="42.46468" lon="2.08817">
        <ele>1710</ele>
        <time>2013-08-17T09:46:38Z</time>
      </trkpt>
      <trkpt lat="42.46476" lon="2.0881">
        <ele>1709</ele>
        <time>2013-08-17T09:46:46Z</time>
      </trkpt>
      <trkpt lat="42.4648" lon="2.08805">
        <ele>1708</ele>
        <time>2013-08-17T09:46:54Z</time>
      </trkpt>
      <trkpt lat="42.46483" lon="2.08799">
        <ele>1707</ele>
        <time>2013-08-17T09:47:02Z</time>
      </trkpt>
      <trkpt lat="42.46492" lon="2.08792">
        <ele>1705</ele>
        <time>2013-08-17T09:47:10Z</time>
      </trkpt>
      <trkpt lat="42.46498" lon="2.08784">
        <ele>1704</ele>
        <time>2013-08-17T09:47:18Z</time>
      </trkpt>
      <trkpt lat="42.46502" lon="2.0878">
        <ele>1703</ele>
        <time>2013-08-17T09:47:22Z</time>
      </trkpt>
      <trkpt lat="42.46504" lon="2.08778">
        <ele>1703.7</ele>
        <time>2013-08-17T09:47:24Z</time>
      </trkpt>
      <trkpt lat="42.46512" lon="2.08773">
        <ele>1702</ele>
        <time>2013-08-17T09:47:30Z</time>
      </trkpt>
      <trkpt lat="42.46519" lon="2.08769">
        <ele>1702</ele>
        <time>2013-08-17T09:47:34Z</time>
      </trkpt>
      <trkpt lat="42.46523" lon="2.08763">
        <ele>1701</ele>
        <time>2013-08-17T09:47:38Z</time>
      </trkpt>
      <trkpt lat="42.46524" lon="2.08754">
        <ele>1700</ele>
        <time>2013-08-17T09:47:46Z</time>
      </trkpt>
      <trkpt lat="42.46526" lon="2.08749">
        <ele>1699</ele>
        <time>2013-08-17T09:47:50Z</time>
      </trkpt>
      <trkpt lat="42.46527" lon="2.08741">
        <ele>1698</ele>
        <time>2013-08-17T09:47:58Z</time>
      </trkpt>
      <trkpt lat="42.46528" lon="2.08733">
        <ele>1696</ele>
        <time>2013-08-17T09:48:06Z</time>
      </trkpt>
      <trkpt lat="42.46526" lon="2.08727">
        <ele>1696</ele>
        <time>2013-08-17T09:48:14Z</time>
      </trkpt>
      <trkpt lat="42.46529" lon="2.0872">
        <ele>1693</ele>
        <time>2013-08-17T09:48:22Z</time>
      </trkpt>
      <trkpt lat="42.4653" lon="2.08714">
        <ele>1692</ele>
        <time>2013-08-17T09:48:30Z</time>
      </trkpt>
      <trkpt lat="42.46529" lon="2.08713">
        <ele>1692.8</ele>
        <time>2013-08-17T09:48:32Z</time>
      </trkpt>
      <trkpt lat="42.46532" lon="2.08701">
        <ele>1690</ele>
        <time>2013-08-17T09:48:46Z</time>
      </trkpt>
      <trkpt lat="42.46534" lon="2.08693">
        <ele>1689</ele>
        <time>2013-08-17T09:48:58Z</time>
      </trkpt>
      <trkpt lat="42.46535" lon="2.08687">
        <ele>1688</ele>
        <time>2013-08-17T09:49:06Z</time>
      </trkpt>
      <trkpt lat="42.46535" lon="2.08681">
        <ele>1687</ele>
        <time>2013-08-17T09:49:14Z</time>
      </trkpt>
      <trkpt lat="42.46535" lon="2.08673">
        <ele>1685</ele>
        <time>2013-08-17T09:49:22Z</time>
      </trkpt>
      <trkpt lat="42.46541" lon="2.08666">
        <ele>1684</ele>
        <time>2013-08-17T09:49:30Z</time>
      </trkpt>
      <trkpt lat="42.46546" lon="2.0866">
        <ele>1683</ele>
        <time>2013-08-17T09:49:38Z</time>
      </trkpt>
      <trkpt lat="42.46546" lon="2.08659">
        <ele>1683.3</ele>
        <time>2013-08-17T09:49:40Z</time>
      </trkpt>
      <trkpt lat="42.46553" lon="2.08646">
        <ele>1680</ele>
        <time>2013-08-17T09:49:54Z</time>
      </trkpt>
      <trkpt lat="42.4656" lon="2.0864">
        <ele>1679</ele>
        <time>2013-08-17T09:50:02Z</time>
      </trkpt>
      <trkpt lat="42.46565" lon="2.08634">
        <ele>1677</ele>
        <time>2013-08-17T09:50:10Z</time>
      </trkpt>
      <trkpt lat="42.46569" lon="2.08625">
        <ele>1675</ele>
        <time>2013-08-17T09:50:18Z</time>
      </trkpt>
      <trkpt lat="42.46572" lon="2.08618">
        <ele>1673</ele>
        <time>2013-08-17T09:50:26Z</time>
      </trkpt>
      <trkpt lat="42.46574" lon="2.08612">
        <ele>1672</ele>
        <time>2013-08-17T09:50:30Z</time>
      </trkpt>
      <trkpt lat="42.46581" lon="2.08605">
        <ele>1670</ele>
        <time>2013-08-17T09:50:38Z</time>
      </trkpt>
      <trkpt lat="42.46586" lon="2.08601">
        <ele>1669</ele>
        <time>2013-08-17T09:50:42Z</time>
      </trkpt>
      <trkpt lat="42.46588" lon="2.086">
        <ele>1669.9</ele>
        <time>2013-08-17T09:50:44Z</time>
      </trkpt>
      <trkpt lat="42.46594" lon="2.08593">
        <ele>1668</ele>
        <time>2013-08-17T09:50:50Z</time>
      </trkpt>
      <trkpt lat="42.46602" lon="2.08586">
        <ele>1666</ele>
        <time>2013-08-17T09:50:58Z</time>
      </trkpt>
      <trkpt lat="42.46607" lon="2.08582">
        <ele>1665</ele>
        <time>2013-08-17T09:51:02Z</time>
      </trkpt>
      <trkpt lat="42.46611" lon="2.08576">
        <ele>1663</ele>
        <time>2013-08-17T09:51:10Z</time>
      </trkpt>
      <trkpt lat="42.46615" lon="2.08572">
        <ele>1662</ele>
        <time>2013-08-17T09:51:14Z</time>
      </trkpt>
      <trkpt lat="42.4662" lon="2.08571">
        <ele>1660</ele>
        <time>2013-08-17T09:51:21Z</time>
      </trkpt>
      <trkpt lat="42.46627" lon="2.08571">
        <ele>1658</ele>
        <time>2013-08-17T09:51:35Z</time>
      </trkpt>
      <trkpt lat="42.46634" lon="2.08571">
        <ele>1657</ele>
        <time>2013-08-17T09:51:39Z</time>
      </trkpt>
      <trkpt lat="42.46641" lon="2.08572">
        <ele>1656</ele>
        <time>2013-08-17T09:51:44Z</time>
      </trkpt>
      <trkpt lat="42.46642" lon="2.08572">
        <ele>1656.9</ele>
        <time>2013-08-17T09:51:46Z</time>
      </trkpt>
      <trkpt lat="42.4665" lon="2.08565">
        <ele>1655</ele>
        <time>2013-08-17T09:51:56Z</time>
      </trkpt>
      <trkpt lat="42.46655" lon="2.08563">
        <ele>1655</ele>
        <time>2013-08-17T09:52:00Z</time>
      </trkpt>
      <trkpt lat="42.4666" lon="2.08561">
        <ele>1654</ele>
        <time>2013-08-17T09:52:04Z</time>
      </trkpt>
      <trkpt lat="42.46664" lon="2.08559">
        <ele>1654</ele>
        <time>2013-08-17T09:52:08Z</time>
      </trkpt>
      <trkpt lat="42.4667" lon="2.08558">
        <ele>1653</ele>
        <time>2013-08-17T09:52:12Z</time>
      </trkpt>
      <trkpt lat="42.46675" lon="2.08559">
        <ele>1652</ele>
        <time>2013-08-17T09:52:16Z</time>
      </trkpt>
      <trkpt lat="42.46682" lon="2.08561">
        <ele>1651</ele>
        <time>2013-08-17T09:52:20Z</time>
      </trkpt>
      <trkpt lat="42.46688" lon="2.08563">
        <ele>1652</ele>
        <time>2013-08-17T09:52:24Z</time>
      </trkpt>
      <trkpt lat="42.46694" lon="2.08565">
        <ele>1651</ele>
        <time>2013-08-17T09:52:28Z</time>
      </trkpt>
      <trkpt lat="42.46699" lon="2.08565">
        <ele>1651</ele>
        <time>2013-08-17T09:52:32Z</time>
      </trkpt>
      <trkpt lat="42.46704" lon="2.08567">
        <ele>1650</ele>
        <time>2013-08-17T09:52:36Z</time>
      </trkpt>
      <trkpt lat="42.4671" lon="2.08567">
        <ele>1651</ele>
        <time>2013-08-17T09:52:40Z</time>
      </trkpt>
      <trkpt lat="42.46715" lon="2.08568">
        <ele>1650</ele>
        <time>2013-08-17T09:52:44Z</time>
      </trkpt>
      <trkpt lat="42.46721" lon="2.08567">
        <ele>1649.6</ele>
        <time>2013-08-17T09:52:50Z</time>
      </trkpt>
      <trkpt lat="42.46721" lon="2.08567">
        <ele>1649.5</ele>
        <time>2013-08-17T09:52:51Z</time>
      </trkpt>
      <trkpt lat="42.46728" lon="2.08569">
        <ele>1649.1</ele>
        <time>2013-08-17T09:52:59Z</time>
      </trkpt>
      <trkpt lat="42.46732" lon="2.08571">
        <ele>1649.3</ele>
        <time>2013-08-17T09:53:04Z</time>
      </trkpt>
      <trkpt lat="42.46735" lon="2.08574">
        <ele>1649.1</ele>
        <time>2013-08-17T09:53:07Z</time>
      </trkpt>
      <trkpt lat="42.46738" lon="2.08577">
        <ele>1648.1</ele>
        <time>2013-08-17T09:53:12Z</time>
      </trkpt>
      <trkpt lat="42.46742" lon="2.08578">
        <ele>1646.9</ele>
        <time>2013-08-17T09:53:18Z</time>
      </trkpt>
      <trkpt lat="42.46745" lon="2.0858">
        <ele>1645.9</ele>
        <time>2013-08-17T09:53:23Z</time>
      </trkpt>
      <trkpt lat="42.46748" lon="2.08582">
        <ele>1644.7</ele>
        <time>2013-08-17T09:53:27Z</time>
      </trkpt>
      <trkpt lat="42.46754" lon="2.08586">
        <ele>1644</ele>
        <time>2013-08-17T09:53:32Z</time>
      </trkpt>
      <trkpt lat="42.46758" lon="2.08589">
        <ele>1643.7</ele>
        <time>2013-08-17T09:53:36Z</time>
      </trkpt>
      <trkpt lat="42.4676" lon="2.08592">
        <ele>1642.3</ele>
        <time>2013-08-17T09:53:40Z</time>
      </trkpt>
      <trkpt lat="42.46762" lon="2.08596">
        <ele>1641.6</ele>
        <time>2013-08-17T09:53:44Z</time>
      </trkpt>
      <trkpt lat="42.46765" lon="2.086">
        <ele>1641.6</ele>
        <time>2013-08-17T09:53:46Z</time>
      </trkpt>
      <trkpt lat="42.46769" lon="2.08601">
        <ele>1640.2</ele>
        <time>2013-08-17T09:53:52Z</time>
      </trkpt>
      <trkpt lat="42.4677" lon="2.08601">
        <ele>1640.1</ele>
        <time>2013-08-17T09:53:53Z</time>
      </trkpt>
      <trkpt lat="42.46777" lon="2.08605">
        <ele>1638.3</ele>
        <time>2013-08-17T09:54:00Z</time>
      </trkpt>
      <trkpt lat="42.46782" lon="2.08606">
        <ele>1638</ele>
        <time>2013-08-17T09:54:03Z</time>
      </trkpt>
      <trkpt lat="42.46785" lon="2.08602">
        <ele>1637.1</ele>
        <time>2013-08-17T09:54:08Z</time>
      </trkpt>
      <trkpt lat="42.46788" lon="2.08598">
        <ele>1636.1</ele>
        <time>2013-08-17T09:54:13Z</time>
      </trkpt>
      <trkpt lat="42.46791" lon="2.08595">
        <ele>1635.2</ele>
        <time>2013-08-17T09:54:16Z</time>
      </trkpt>
      <trkpt lat="42.46793" lon="2.08593">
        <ele>1634.9</ele>
        <time>2013-08-17T09:54:17Z</time>
      </trkpt>
      <trkpt lat="42.46795" lon="2.08592">
        <ele>1634.7</ele>
        <time>2013-08-17T09:54:18Z</time>
      </trkpt>
      <trkpt lat="42.46797" lon="2.08591">
        <ele>1634.5</ele>
        <time>2013-08-17T09:54:19Z</time>
      </trkpt>
      <trkpt lat="42.468" lon="2.0859">
        <ele>1634.3</ele>
        <time>2013-08-17T09:54:20Z</time>
      </trkpt>
      <trkpt lat="42.46803" lon="2.08586">
        <ele>1633.7</ele>
        <time>2013-08-17T09:54:22Z</time>
      </trkpt>
      <trkpt lat="42.46806" lon="2.08584">
        <ele>1633.2</ele>
        <time>2013-08-17T09:54:25Z</time>
      </trkpt>
      <trkpt lat="42.46809" lon="2.0858">
        <ele>1632.7</ele>
        <time>2013-08-17T09:54:28Z</time>
      </trkpt>
      <trkpt lat="42.4681" lon="2.08575">
        <ele>1632</ele>
        <time>2013-08-17T09:54:32Z</time>
      </trkpt>
      <trkpt lat="42.46812" lon="2.08572">
        <ele>1631.7</ele>
        <time>2013-08-17T09:54:34Z</time>
      </trkpt>
      <trkpt lat="42.46814" lon="2.08568">
        <ele>1631.3</ele>
        <time>2013-08-17T09:54:36Z</time>
      </trkpt>
      <trkpt lat="42.46815" lon="2.08562">
        <ele>1632.1</ele>
        <time>2013-08-17T09:54:39Z</time>
      </trkpt>
      <trkpt lat="42.46817" lon="2.08557">
        <ele>1632.8</ele>
        <time>2013-08-17T09:54:43Z</time>
      </trkpt>
      <trkpt lat="42.4682" lon="2.08552">
        <ele>1631.9</ele>
        <time>2013-08-17T09:54:46Z</time>
      </trkpt>
      <trkpt lat="42.46821" lon="2.08548">
        <ele>1631.6</ele>
        <time>2013-08-17T09:54:50Z</time>
      </trkpt>
      <trkpt lat="42.46822" lon="2.08543">
        <ele>1630.9</ele>
        <time>2013-08-17T09:54:53Z</time>
      </trkpt>
      <trkpt lat="42.46822" lon="2.08541">
        <ele>1630.5</ele>
        <time>2013-08-17T09:54:54Z</time>
      </trkpt>
      <trkpt lat="42.46823" lon="2.08532">
        <ele>1630.1</ele>
        <time>2013-08-17T09:55:01Z</time>
      </trkpt>
      <trkpt lat="42.46824" lon="2.08528">
        <ele>1630.3</ele>
        <time>2013-08-17T09:55:04Z</time>
      </trkpt>
      <trkpt lat="42.46825" lon="2.08524">
        <ele>1630.3</ele>
        <time>2013-08-17T09:55:06Z</time>
      </trkpt>
      <trkpt lat="42.46825" lon="2.08519">
        <ele>1630</ele>
        <time>2013-08-17T09:55:09Z</time>
      </trkpt>
      <trkpt lat="42.46824" lon="2.08513">
        <ele>1629.5</ele>
        <time>2013-08-17T09:55:13Z</time>
      </trkpt>
      <trkpt lat="42.46823" lon="2.08508">
        <ele>1629.3</ele>
        <time>2013-08-17T09:55:16Z</time>
      </trkpt>
      <trkpt lat="42.4682" lon="2.08504">
        <ele>1629.1</ele>
        <time>2013-08-17T09:55:19Z</time>
      </trkpt>
      <trkpt lat="42.46819" lon="2.08498">
        <ele>1628.8</ele>
        <time>2013-08-17T09:55:22Z</time>
      </trkpt>
      <trkpt lat="42.46819" lon="2.08493">
        <ele>1628.6</ele>
        <time>2013-08-17T09:55:24Z</time>
      </trkpt>
      <trkpt lat="42.4682" lon="2.08489">
        <ele>1628.2</ele>
        <time>2013-08-17T09:55:27Z</time>
      </trkpt>
      <trkpt lat="42.46821" lon="2.08483">
        <ele>1627.6</ele>
        <time>2013-08-17T09:55:30Z</time>
      </trkpt>
      <trkpt lat="42.46821" lon="2.08478">
        <ele>1627.9</ele>
        <time>2013-08-17T09:55:33Z</time>
      </trkpt>
      <trkpt lat="42.46823" lon="2.08473">
        <ele>1627.7</ele>
        <time>2013-08-17T09:55:36Z</time>
      </trkpt>
      <trkpt lat="42.46826" lon="2.08468">
        <ele>1627.7</ele>
        <time>2013-08-17T09:55:39Z</time>
      </trkpt>
      <trkpt lat="42.46828" lon="2.08465">
        <ele>1627.4</ele>
        <time>2013-08-17T09:55:41Z</time>
      </trkpt>
      <trkpt lat="42.4683" lon="2.08461">
        <ele>1627.1</ele>
        <time>2013-08-17T09:55:43Z</time>
      </trkpt>
      <trkpt lat="42.46832" lon="2.08456">
        <ele>1626.8</ele>
        <time>2013-08-17T09:55:46Z</time>
      </trkpt>
      <trkpt lat="42.46834" lon="2.08452">
        <ele>1626.4</ele>
        <time>2013-08-17T09:55:50Z</time>
      </trkpt>
      <trkpt lat="42.46837" lon="2.08447">
        <ele>1625.8</ele>
        <time>2013-08-17T09:55:53Z</time>
      </trkpt>
      <trkpt lat="42.46839" lon="2.08443">
        <ele>1625.6</ele>
        <time>2013-08-17T09:55:56Z</time>
      </trkpt>
      <trkpt lat="42.46839" lon="2.08442">
        <ele>1625.4</ele>
        <time>2013-08-17T09:55:57Z</time>
      </trkpt>
      <trkpt lat="42.46844" lon="2.08434">
        <ele>1625</ele>
        <time>2013-08-17T09:56:04Z</time>
      </trkpt>
      <trkpt lat="42.46845" lon="2.08431">
        <ele>1624.9</ele>
        <time>2013-08-17T09:56:07Z</time>
      </trkpt>
      <trkpt lat="42.46848" lon="2.08428">
        <ele>1624.6</ele>
        <time>2013-08-17T09:56:09Z</time>
      </trkpt>
      <trkpt lat="42.46852" lon="2.08426">
        <ele>1624.2</ele>
        <time>2013-08-17T09:56:12Z</time>
      </trkpt>
      <trkpt lat="42.46855" lon="2.08422">
        <ele>1623.3</ele>
        <time>2013-08-17T09:56:16Z</time>
      </trkpt>
      <trkpt lat="42.46857" lon="2.08418">
        <ele>1623</ele>
        <time>2013-08-17T09:56:20Z</time>
      </trkpt>
      <trkpt lat="42.4686" lon="2.08413">
        <ele>1623.4</ele>
        <time>2013-08-17T09:56:24Z</time>
      </trkpt>
      <trkpt lat="42.46861" lon="2.08409">
        <ele>1623.1</ele>
        <time>2013-08-17T09:56:27Z</time>
      </trkpt>
      <trkpt lat="42.46865" lon="2.08406">
        <ele>1622.6</ele>
        <time>2013-08-17T09:56:31Z</time>
      </trkpt>
      <trkpt lat="42.46865" lon="2.08401">
        <ele>1621.5</ele>
        <time>2013-08-17T09:56:35Z</time>
      </trkpt>
      <trkpt lat="42.46868" lon="2.08397">
        <ele>1621</ele>
        <time>2013-08-17T09:56:40Z</time>
      </trkpt>
      <trkpt lat="42.46871" lon="2.08395">
        <ele>1620.5</ele>
        <time>2013-08-17T09:56:43Z</time>
      </trkpt>
      <trkpt lat="42.46875" lon="2.08392">
        <ele>1620.5</ele>
        <time>2013-08-17T09:56:47Z</time>
      </trkpt>
      <trkpt lat="42.46879" lon="2.08392">
        <ele>1620.3</ele>
        <time>2013-08-17T09:56:51Z</time>
      </trkpt>
      <trkpt lat="42.46883" lon="2.0839">
        <ele>1619.3</ele>
        <time>2013-08-17T09:56:55Z</time>
      </trkpt>
      <trkpt lat="42.46886" lon="2.08388">
        <ele>1618.2</ele>
        <time>2013-08-17T09:56:58Z</time>
      </trkpt>
      <trkpt lat="42.46887" lon="2.08387">
        <ele>1618</ele>
        <time>2013-08-17T09:56:59Z</time>
      </trkpt>
      <trkpt lat="42.46892" lon="2.08383">
        <ele>1617.7</ele>
        <time>2013-08-17T09:57:05Z</time>
      </trkpt>
      <trkpt lat="42.46897" lon="2.08382">
        <ele>1617.2</ele>
        <time>2013-08-17T09:57:08Z</time>
      </trkpt>
      <trkpt lat="42.46899" lon="2.08379">
        <ele>1616.9</ele>
        <time>2013-08-17T09:57:11Z</time>
      </trkpt>
      <trkpt lat="42.46903" lon="2.08377">
        <ele>1616.9</ele>
        <time>2013-08-17T09:57:14Z</time>
      </trkpt>
      <trkpt lat="42.46906" lon="2.08376">
        <ele>1616.9</ele>
        <time>2013-08-17T09:57:17Z</time>
      </trkpt>
      <trkpt lat="42.46909" lon="2.08373">
        <ele>1616.8</ele>
        <time>2013-08-17T09:57:21Z</time>
      </trkpt>
      <trkpt lat="42.46911" lon="2.08369">
        <ele>1616.7</ele>
        <time>2013-08-17T09:57:23Z</time>
      </trkpt>
      <trkpt lat="42.46912" lon="2.08365">
        <ele>1616.6</ele>
        <time>2013-08-17T09:57:25Z</time>
      </trkpt>
      <trkpt lat="42.46913" lon="2.08361">
        <ele>1615.8</ele>
        <time>2013-08-17T09:57:27Z</time>
      </trkpt>
      <trkpt lat="42.46914" lon="2.08357">
        <ele>1615.5</ele>
        <time>2013-08-17T09:57:29Z</time>
      </trkpt>
      <trkpt lat="42.46914" lon="2.08352">
        <ele>1615.5</ele>
        <time>2013-08-17T09:57:31Z</time>
      </trkpt>
      <trkpt lat="42.46912" lon="2.08347">
        <ele>1615.5</ele>
        <time>2013-08-17T09:57:33Z</time>
      </trkpt>
      <trkpt lat="42.4691" lon="2.08342">
        <ele>1615.5</ele>
        <time>2013-08-17T09:57:35Z</time>
      </trkpt>
      <trkpt lat="42.4691" lon="2.08339">
        <ele>1615.2</ele>
        <time>2013-08-17T09:57:37Z</time>
      </trkpt>
      <trkpt lat="42.46909" lon="2.08334">
        <ele>1614.9</ele>
        <time>2013-08-17T09:57:39Z</time>
      </trkpt>
      <trkpt lat="42.4691" lon="2.08329">
        <ele>1614.4</ele>
        <time>2013-08-17T09:57:42Z</time>
      </trkpt>
      <trkpt lat="42.46909" lon="2.08324">
        <ele>1614.3</ele>
        <time>2013-08-17T09:57:44Z</time>
      </trkpt>
      <trkpt lat="42.46909" lon="2.0832">
        <ele>1615.4</ele>
        <time>2013-08-17T09:57:46Z</time>
      </trkpt>
      <trkpt lat="42.46908" lon="2.08315">
        <ele>1615.1</ele>
        <time>2013-08-17T09:57:49Z</time>
      </trkpt>
      <trkpt lat="42.46907" lon="2.0831">
        <ele>1614.6</ele>
        <time>2013-08-17T09:57:52Z</time>
      </trkpt>
      <trkpt lat="42.46908" lon="2.08305">
        <ele>1614.2</ele>
        <time>2013-08-17T09:57:55Z</time>
      </trkpt>
      <trkpt lat="42.4691" lon="2.083">
        <ele>1613.8</ele>
        <time>2013-08-17T09:57:58Z</time>
      </trkpt>
      <trkpt lat="42.46913" lon="2.08295">
        <ele>1613.9</ele>
        <time>2013-08-17T09:58:01Z</time>
      </trkpt>
      <trkpt lat="42.46913" lon="2.08294">
        <ele>1614</ele>
        <time>2013-08-17T09:58:02Z</time>
      </trkpt>
      <trkpt lat="42.46917" lon="2.08287">
        <ele>1614.6</ele>
        <time>2013-08-17T09:58:07Z</time>
      </trkpt>
      <trkpt lat="42.46919" lon="2.08283">
        <ele>1614.6</ele>
        <time>2013-08-17T09:58:11Z</time>
      </trkpt>
      <trkpt lat="42.46922" lon="2.0828">
        <ele>1614.4</ele>
        <time>2013-08-17T09:58:14Z</time>
      </trkpt>
      <trkpt lat="42.46925" lon="2.08277">
        <ele>1613.9</ele>
        <time>2013-08-17T09:58:18Z</time>
      </trkpt>
      <trkpt lat="42.46928" lon="2.08273">
        <ele>1614.1</ele>
        <time>2013-08-17T09:58:22Z</time>
      </trkpt>
      <trkpt lat="42.46932" lon="2.08269">
        <ele>1614</ele>
        <time>2013-08-17T09:58:26Z</time>
      </trkpt>
      <trkpt lat="42.46934" lon="2.08266">
        <ele>1613.6</ele>
        <time>2013-08-17T09:58:30Z</time>
      </trkpt>
      <trkpt lat="42.46937" lon="2.08262">
        <ele>1613.8</ele>
        <time>2013-08-17T09:58:33Z</time>
      </trkpt>
      <trkpt lat="42.4694" lon="2.08259">
        <ele>1614.1</ele>
        <time>2013-08-17T09:58:36Z</time>
      </trkpt>
      <trkpt lat="42.46942" lon="2.08255">
        <ele>1613.7</ele>
        <time>2013-08-17T09:58:39Z</time>
      </trkpt>
      <trkpt lat="42.46945" lon="2.08252">
        <ele>1613.6</ele>
        <time>2013-08-17T09:58:42Z</time>
      </trkpt>
      <trkpt lat="42.46948" lon="2.08248">
        <ele>1613.4</ele>
        <time>2013-08-17T09:58:46Z</time>
      </trkpt>
      <trkpt lat="42.4695" lon="2.08245">
        <ele>1613.7</ele>
        <time>2013-08-17T09:58:48Z</time>
      </trkpt>
      <trkpt lat="42.46952" lon="2.0824">
        <ele>1614.1</ele>
        <time>2013-08-17T09:58:51Z</time>
      </trkpt>
      <trkpt lat="42.46954" lon="2.08234">
        <ele>1615.4</ele>
        <time>2013-08-17T09:58:56Z</time>
      </trkpt>
      <trkpt lat="42.46956" lon="2.08231">
        <ele>1616</ele>
        <time>2013-08-17T09:59:00Z</time>
      </trkpt>
      <trkpt lat="42.46959" lon="2.08227">
        <ele>1615.9</ele>
        <time>2013-08-17T09:59:03Z</time>
      </trkpt>
      <trkpt lat="42.46959" lon="2.08225">
        <ele>1615.9</ele>
        <time>2013-08-17T09:59:04Z</time>
      </trkpt>
      <trkpt lat="42.4696" lon="2.08215">
        <ele>1614.9</ele>
        <time>2013-08-17T09:59:09Z</time>
      </trkpt>
      <trkpt lat="42.4696" lon="2.0821">
        <ele>1614.9</ele>
        <time>2013-08-17T09:59:12Z</time>
      </trkpt>
      <trkpt lat="42.46961" lon="2.08205">
        <ele>1615</ele>
        <time>2013-08-17T09:59:15Z</time>
      </trkpt>
      <trkpt lat="42.4696" lon="2.082">
        <ele>1614.8</ele>
        <time>2013-08-17T09:59:18Z</time>
      </trkpt>
      <trkpt lat="42.46958" lon="2.08195">
        <ele>1614.6</ele>
        <time>2013-08-17T09:59:22Z</time>
      </trkpt>
      <trkpt lat="42.46958" lon="2.0819">
        <ele>1614.3</ele>
        <time>2013-08-17T09:59:27Z</time>
      </trkpt>
      <trkpt lat="42.46961" lon="2.08186">
        <ele>1614.1</ele>
        <time>2013-08-17T09:59:34Z</time>
      </trkpt>
      <trkpt lat="42.46964" lon="2.08183">
        <ele>1614.1</ele>
        <time>2013-08-17T09:59:37Z</time>
      </trkpt>
      <trkpt lat="42.46967" lon="2.08179">
        <ele>1613</ele>
        <time>2013-08-17T09:59:48Z</time>
      </trkpt>
      <trkpt lat="42.46971" lon="2.08176">
        <ele>1613.3</ele>
        <time>2013-08-17T09:59:54Z</time>
      </trkpt>
      <trkpt lat="42.46968" lon="2.08173">
        <ele>1609.9</ele>
        <time>2013-08-17T10:00:45Z</time>
      </trkpt>
      <trkpt lat="42.46967" lon="2.08173">
        <ele>1609.7</ele>
        <time>2013-08-17T10:00:46Z</time>
      </trkpt>
      <trkpt lat="42.4697" lon="2.08165">
        <ele>1609.9</ele>
        <time>2013-08-17T10:00:54Z</time>
      </trkpt>
      <trkpt lat="42.46973" lon="2.08162">
        <ele>1609.9</ele>
        <time>2013-08-17T10:00:55Z</time>
      </trkpt>
      <trkpt lat="42.46976" lon="2.08159">
        <ele>1609.9</ele>
        <time>2013-08-17T10:00:56Z</time>
      </trkpt>
      <trkpt lat="42.4698" lon="2.08156">
        <ele>1609.7</ele>
        <time>2013-08-17T10:00:57Z</time>
      </trkpt>
    </trkseg>
  </trk>
</gpx>